Observation data for Lomax on 01/11/2018      Previous  Date  Next       Current Mesonet Observations  Soil Data  Daily Summary Page  Observations in Plain Language
KLO1 110600Z 24020G28KT 13/02 A2971 RMK A01 T01290015  RH  046%=      5-min Rain = 0
KLO1 110601Z 24021KT 13/02 A2971 RMK A01 T01290015  RH  046%=      5-min Rain = 0
KLO1 110602Z 25020KT 13/02 A2971 RMK A01 T01290015  RH  046%=      5-min Rain = 0
KLO1 110603Z 24019KT 13/02 A2971 RMK A01 T01290015  RH  046%=      5-min Rain = 0
KLO1 110604Z 25022G28KT 13/02 A2971 RMK A01 T01290015  RH  046%=      5-min Rain = 0
KLO1 110605Z 24020G27KT 13/02 A2971 RMK A01 T01300016  RH  046%=      5-min Rain = 0
KLO1 110606Z 25019KT 13/02 A2971 RMK A01 T01300016  RH  046%=      5-min Rain = 0
KLO1 110607Z 24019KT 13/02 A2971 RMK A01 T01290015  RH  046%=      5-min Rain = 0
KLO1 110608Z 25017KT 13/02 A2971 RMK A01 T01290015  RH  046%=      5-min Rain = 0
KLO1 110609Z 24019KT 13/02 A2971 RMK A01 T01280016  RH  046%=      5-min Rain = 0
KLO1 110610Z 24018KT 13/02 A2971 RMK A01 T01280016  RH  046%=      5-min Rain = 0
KLO1 110611Z 24017KT 13/02 A2971 RMK A01 T01280015  RH  046%=      5-min Rain = 0
KLO1 110612Z 24016KT 13/02 A2971 RMK A01 T01280015  RH  046%=      5-min Rain = 0
KLO1 110613Z 25017KT 13/02 A2971 RMK A01 T01270015  RH  047%=      5-min Rain = 0
KLO1 110614Z 25017KT 13/02 A2971 RMK A01 T01260015  RH  047%=      5-min Rain = 0
KLO1 110615Z 25019KT 13/02 A2971 RMK A01 T01260015  RH  047%=      5-min Rain = 0
KLO1 110616Z 24018KT 13/02 A2971 RMK A01 T01270015  RH  046%=      5-min Rain = 0
KLO1 110617Z 24017G22KT 13/02 A2971 RMK A01 T01270015  RH  046%=      5-min Rain = 0
KLO1 110618Z 24019KT 13/02 A2971 RMK A01 T01270015  RH  046%=      5-min Rain = 0
KLO1 110619Z 24016KT 13/02 A2971 RMK A01 T01280015  RH  046%=      5-min Rain = 0
KLO1 110620Z 25017KT 13/01 A2971 RMK A01 T01270014  RH  046%=      5-min Rain = 0
KLO1 110621Z 24018KT 13/01 A2971 RMK A01 T01270014  RH  046%=      5-min Rain = 0
KLO1 110622Z 24017KT 13/01 A2971 RMK A01 T01270014  RH  046%=      5-min Rain = 0
KLO1 110623Z 25018KT 13/01 A2971 RMK A01 T01270014  RH  046%=      5-min Rain = 0
KLO1 110624Z 25017G25KT 13/01 A2971 RMK A01 T01270014  RH  046%=      5-min Rain = 0
KLO1 110625Z 24017KT 13/01 A2971 RMK A01 T01270014  RH  046%=      5-min Rain = 0
KLO1 110626Z 24018G23KT 13/01 A2972 RMK A01 T01270014  RH  046%=      5-min Rain = 0
KLO1 110627Z 24018KT 13/01 A2972 RMK A01 T01270014  RH  046%=      5-min Rain = 0
KLO1 110628Z 25019KT 13/01 A2972 RMK A01 T01270014  RH  046%=      5-min Rain = 0
KLO1 110629Z 24017KT 13/01 A2972 RMK A01 T01270014  RH  046%=      5-min Rain = 0
KLO1 110630Z 24016KT 13/01 A2972 RMK A01 T01270013  RH  046%=      5-min Rain = 0
KLO1 110631Z 24017KT 13/01 A2972 RMK A01 T01260013  RH  046%=      5-min Rain = 0
KLO1 110632Z 24015KT 13/01 A2971 RMK A01 T01260013  RH  046%=      5-min Rain = 0
KLO1 110633Z 24015KT 13/01 A2971 RMK A01 T01260013  RH  046%=      5-min Rain = 0
KLO1 110634Z 24016KT 13/01 A2971 RMK A01 T01250013  RH  046%=      5-min Rain = 0
KLO1 110635Z 25018KT 13/01 A2971 RMK A01 T01250013  RH  046%=      5-min Rain = 0
KLO1 110636Z 24017KT 13/01 A2971 RMK A01 T01260013  RH  046%=      5-min Rain = 0
KLO1 110637Z 24020KT 13/01 A2971 RMK A01 T01260013  RH  046%=      5-min Rain = 0
KLO1 110638Z 24018G23KT 13/01 A2971 RMK A01 T01260013  RH  046%=      5-min Rain = 0
KLO1 110639Z 24016KT 13/01 A2971 RMK A01 T01260013  RH  046%=      5-min Rain = 0
KLO1 110640Z 25017KT 13/01 A2971 RMK A01 T01260012  RH  046%=      5-min Rain = 0
KLO1 110641Z 25018KT 13/01 A2971 RMK A01 T01250012  RH  046%=      5-min Rain = 0
KLO1 110642Z 24018KT 13/01 A2971 RMK A01 T01260012  RH  046%=      5-min Rain = 0
KLO1 110643Z 24015KT 13/01 A2972 RMK A01 T01260013  RH  046%=      5-min Rain = 0
KLO1 110644Z 24017KT 13/01 A2972 RMK A01 T01260012  RH  046%=      5-min Rain = 0
KLO1 110645Z 24015KT 13/01 A2972 RMK A01 T01260012  RH  046%=      5-min Rain = 0
KLO1 110646Z 25018KT 13/01 A2972 RMK A01 T01250012  RH  046%=      5-min Rain = 0
KLO1 110647Z 24015KT 13/01 A2972 RMK A01 T01250012  RH  046%=      5-min Rain = 0
KLO1 110648Z 24014KT 13/01 A2972 RMK A01 T01250012  RH  046%=      5-min Rain = 0
KLO1 110649Z 24016KT 12/01 A2972 RMK A01 T01240012  RH  046%=      5-min Rain = 0
KLO1 110650Z 24017KT 12/01 A2972 RMK A01 T01240012  RH  046%=      5-min Rain = 0
KLO1 110651Z 25015KT 13/01 A2972 RMK A01 T01250012  RH  046%=      5-min Rain = 0
KLO1 110652Z 25015KT 12/01 A2972 RMK A01 T01240012  RH  046%=      5-min Rain = 0
KLO1 110653Z 24016KT 12/01 A2972 RMK A01 T01240012  RH  046%=      5-min Rain = 0
KLO1 110654Z 25017KT 12/01 A2971 RMK A01 T01240012  RH  046%=      5-min Rain = 0
KLO1 110655Z 24016KT 13/01 A2972 RMK A01 T01250012  RH  046%=      5-min Rain = 0
KLO1 110656Z 24017KT 13/01 A2972 RMK A01 T01250012  RH  046%=      5-min Rain = 0
KLO1 110657Z 24019G24KT 13/01 A2971 RMK A01 T01250011  RH  046%=      5-min Rain = 0
KLO1 110658Z 25018KT 13/01 A2971 RMK A01 T01260012  RH  046%=      5-min Rain = 0
KLO1 110659Z 25017KT 13/01 A2971 RMK A01 T01260012  RH  046%=      5-min Rain = 0
KLO1 110700Z 25016KT 13/01 A2972 RMK A01 T01260011  RH  046%=      5-min Rain = 0
KLO1 110701Z 24017KT 13/01 A2972 RMK A01 T01250011  RH  046%=      5-min Rain = 0
KLO1 110702Z 25017KT 13/01 A2971 RMK A01 T01250011  RH  046%=      5-min Rain = 0
KLO1 110703Z 25018G23KT 13/01 A2971 RMK A01 T01260011  RH  046%=      5-min Rain = 0
KLO1 110704Z 24016KT 13/01 A2971 RMK A01 T01260011  RH  045%=      5-min Rain = 0
KLO1 110705Z 25015KT 13/01 A2971 RMK A01 T01260011  RH  045%=      5-min Rain = 0
KLO1 110706Z 24017G22KT 13/01 A2971 RMK A01 T01250010  RH  045%=      5-min Rain = 0
KLO1 110707Z 24019KT 13/01 A2971 RMK A01 T01260011  RH  045%=      5-min Rain = 0
KLO1 110708Z 24016G21KT 13/01 A2971 RMK A01 T01260011  RH  045%=      5-min Rain = 0
KLO1 110709Z 24015KT 13/01 A2971 RMK A01 T01260011  RH  045%=      5-min Rain = 0
KLO1 110710Z 24017KT 13/01 A2971 RMK A01 T01250010  RH  045%=      5-min Rain = 0
KLO1 110711Z 24016G21KT 13/01 A2971 RMK A01 T01250010  RH  045%=      5-min Rain = 0
KLO1 110712Z 25016G21KT 13/01 A2971 RMK A01 T01250010  RH  045%=      5-min Rain = 0
KLO1 110713Z 25018KT 13/01 A2971 RMK A01 T01250010  RH  045%=      5-min Rain = 0
KLO1 110714Z 24017KT 13/01 A2971 RMK A01 T01250010  RH  045%=      5-min Rain = 0
KLO1 110715Z 24014KT 13/01 A2971 RMK A01 T01260010  RH  045%=      5-min Rain = 0
KLO1 110716Z 24016KT 12/01 A2971 RMK A01 T01240009  RH  045%=      5-min Rain = 0
KLO1 110717Z 24018KT 12/01 A2971 RMK A01 T01240010  RH  045%=      5-min Rain = 0
KLO1 110718Z 24018KT 13/01 A2971 RMK A01 T01250009  RH  045%=      5-min Rain = 0
KLO1 110719Z 25015KT 13/01 A2971 RMK A01 T01250009  RH  045%=      5-min Rain = 0
KLO1 110720Z 25018KT 13/01 A2971 RMK A01 T01250009  RH  045%=      5-min Rain = 0
KLO1 110721Z 25017KT 13/01 A2971 RMK A01 T01250009  RH  045%=      5-min Rain = 0
KLO1 110722Z 25016KT 13/01 A2971 RMK A01 T01260009  RH  045%=      5-min Rain = 0
KLO1 110723Z 25018KT 13/01 A2971 RMK A01 T01260009  RH  045%=      5-min Rain = 0
KLO1 110724Z 25016KT 13/01 A2971 RMK A01 T01250009  RH  045%=      5-min Rain = 0
KLO1 110725Z 25014KT 13/01 A2971 RMK A01 T01250009  RH  045%=      5-min Rain = 0
KLO1 110726Z 24015G20KT 13/01 A2971 RMK A01 T01250009  RH  045%=      5-min Rain = 0
KLO1 110727Z 25017G22KT 12/01 A2971 RMK A01 T01240009  RH  045%=      5-min Rain = 0
KLO1 110728Z 25017KT 12/01 A2971 RMK A01 T01240008  RH  045%=      5-min Rain = 0
KLO1 110729Z 24017KT 12/01 A2971 RMK A01 T01240009  RH  045%=      5-min Rain = 0
KLO1 110730Z 25016KT 13/01 A2971 RMK A01 T01250009  RH  045%=      5-min Rain = 0
KLO1 110731Z 24017KT 13/01 A2971 RMK A01 T01250008  RH  045%=      5-min Rain = 0
KLO1 110732Z 24018KT 13/01 A2971 RMK A01 T01250008  RH  045%=      5-min Rain = 0
KLO1 110733Z 24017KT 13/01 A2971 RMK A01 T01250008  RH  045%=      5-min Rain = 0
KLO1 110734Z 25016KT 13/01 A2971 RMK A01 T01250009  RH  045%=      5-min Rain = 0
KLO1 110735Z 25017KT 13/01 A2971 RMK A01 T01250008  RH  045%=      5-min Rain = 0
KLO1 110736Z 25016KT 12/01 A2971 RMK A01 T01240008  RH  045%=      5-min Rain = 0
KLO1 110737Z 25018KT 12/01 A297 RMK A01 T01240008  RH  045%=      5-min Rain = 0
KLO1 110738Z 24016KT 12/01 A297 RMK A01 T01240008  RH  045%=      5-min Rain = 0
KLO1 110739Z 24015KT 12/01 A297 RMK A01 T01240008  RH  045%=      5-min Rain = 0
KLO1 110740Z 25016G21KT 12/01 A297 RMK A01 T01240008  RH  045%=      5-min Rain = 0
KLO1 110741Z 25015KT 12/01 A297 RMK A01 T01230007  RH  045%=      5-min Rain = 0
KLO1 110742Z 24016KT 12/01 A297 RMK A01 T01230008  RH  045%=      5-min Rain = 0
KLO1 110743Z 24015KT 12/01 A297 RMK A01 T01230008  RH  045%=      5-min Rain = 0
KLO1 110744Z 24017KT 12/01 A297 RMK A01 T01230007  RH  045%=      5-min Rain = 0
KLO1 110745Z 24016G21KT 12/01 A297 RMK A01 T01230007  RH  045%=      5-min Rain = 0
KLO1 110746Z 25017KT 12/01 A297 RMK A01 T01230007  RH  045%=      5-min Rain = 0
KLO1 110747Z 25019KT 12/01 A297 RMK A01 T01230007  RH  045%=      5-min Rain = 0
KLO1 110748Z 24018KT 12/01 A297 RMK A01 T01240007  RH  045%=      5-min Rain = 0
KLO1 110749Z 24016KT 12/01 A297 RMK A01 T01240007  RH  045%=      5-min Rain = 0
KLO1 110750Z 24019KT 12/01 A297 RMK A01 T01230007  RH  045%=      5-min Rain = 0
KLO1 110751Z 24016KT 12/01 A2971 RMK A01 T01240007  RH  045%=      5-min Rain = 0
KLO1 110752Z 24016KT 12/01 A2971 RMK A01 T01230006  RH  045%=      5-min Rain = 0
KLO1 110753Z 24017KT 12/01 A2971 RMK A01 T01210006  RH  045%=      5-min Rain = 0
KLO1 110754Z 24020KT 12/01 A297 RMK A01 T01220006  RH  045%=      5-min Rain = 0
KLO1 110755Z 24018KT 12/01 A297 RMK A01 T01230006  RH  045%=      5-min Rain = 0
KLO1 110756Z 24018KT 12/01 A297 RMK A01 T01230006  RH  045%=      5-min Rain = 0
KLO1 110757Z 24018KT 12/01 A297 RMK A01 T01230006  RH  045%=      5-min Rain = 0
KLO1 110758Z 25017KT 12/01 A297 RMK A01 T01230006  RH  045%=      5-min Rain = 0
KLO1 110759Z 25019G24KT 12/01 A297 RMK A01 T01230006  RH  045%=      5-min Rain = 0
KLO1 110800Z 25017KT 12/01 A297 RMK A01 T01230006  RH  045%=      5-min Rain = 0
KLO1 110801Z 25017KT 12/01 A297 RMK A01 T01220005  RH  045%=      5-min Rain = 0
KLO1 110802Z 25019G24KT 12/01 A297 RMK A01 T01220005  RH  045%=      5-min Rain = 0
KLO1 110803Z 25020KT 12/01 A297 RMK A01 T01220005  RH  045%=      5-min Rain = 0
KLO1 110804Z 25020KT 12/01 A297 RMK A01 T01230005  RH  044%=      5-min Rain = 0
KLO1 110805Z 25019G24KT 12/01 A297 RMK A01 T01240005  RH  044%=      5-min Rain = 0
KLO1 110806Z 25021G26KT 12/01 A297 RMK A01 T01240005  RH  044%=      5-min Rain = 0
KLO1 110807Z 25018G24KT 12/01 A297 RMK A01 T01240005  RH  044%=      5-min Rain = 0
KLO1 110808Z 25018KT 12/00 A297 RMK A01 T01230004  RH  044%=      5-min Rain = 0
KLO1 110809Z 25019KT 12/01 A297 RMK A01 T01230005  RH  044%=      5-min Rain = 0
KLO1 110810Z 25019KT 12/01 A297 RMK A01 T01230005  RH  044%=      5-min Rain = 0
KLO1 110811Z 25022KT 12/00 A297 RMK A01 T01220004  RH  044%=      5-min Rain = 0
KLO1 110812Z 25018KT 12/00 A297 RMK A01 T01230004  RH  044%=      5-min Rain = 0
KLO1 110813Z 25019G24KT 12/00 A297 RMK A01 T01230004  RH  044%=      5-min Rain = 0
KLO1 110814Z 25019KT 12/00 A297 RMK A01 T01230004  RH  044%=      5-min Rain = 0
KLO1 110815Z 25018KT 12/00 A297 RMK A01 T01230004  RH  044%=      5-min Rain = 0
KLO1 110816Z 25019KT 12/00 A297 RMK A01 T01230004  RH  044%=      5-min Rain = 0
KLO1 110817Z 25019KT 12/00 A297 RMK A01 T01220004  RH  044%=      5-min Rain = 0
KLO1 110818Z 25019KT 12/00 A297 RMK A01 T01210004  RH  044%=      5-min Rain = 0
KLO1 110819Z 25019KT 12/00 A297 RMK A01 T01220004  RH  044%=      5-min Rain = 0
KLO1 110820Z 25018G23KT 12/00 A297 RMK A01 T01220003  RH  044%=      5-min Rain = 0
KLO1 110821Z 25019KT 12/00 A297 RMK A01 T01220003  RH  044%=      5-min Rain = 0
KLO1 110822Z 25021KT 12/00 A297 RMK A01 T01220003  RH  044%=      5-min Rain = 0
KLO1 110823Z 25017G24KT 12/00 A2971 RMK A01 T01230003  RH  044%=      5-min Rain = 0
KLO1 110824Z 25020KT 12/00 A2971 RMK A01 T01230003  RH  044%=      5-min Rain = 0
KLO1 110825Z 25019KT 12/00 A2971 RMK A01 T01220003  RH  044%=      5-min Rain = 0
KLO1 110826Z 25020KT 12/00 A2971 RMK A01 T01220003  RH  044%=      5-min Rain = 0
KLO1 110827Z 25019KT 12/00 A2971 RMK A01 T01220003  RH  044%=      5-min Rain = 0
KLO1 110828Z 25017KT 12/00 A2971 RMK A01 T01220002  RH  044%=      5-min Rain = 0
KLO1 110829Z 25019KT 12/00 A2971 RMK A01 T01210002  RH  044%=      5-min Rain = 0
KLO1 110830Z 25018G23KT 12/00 A2971 RMK A01 T01210002  RH  044%=      5-min Rain = 0
KLO1 110831Z 25020KT 12/00 A2971 RMK A01 T01210002  RH  044%=      5-min Rain = 0
KLO1 110832Z 25020KT 12/00 A2971 RMK A01 T01220002  RH  044%=      5-min Rain = 0
KLO1 110833Z 25018G23KT 12/00 A2971 RMK A01 T01230002  RH  044%=      5-min Rain = 0
KLO1 110834Z 25016KT 12/00 A2971 RMK A01 T01220002  RH  044%=      5-min Rain = 0
KLO1 110835Z 25017KT 12/00 A2971 RMK A01 T01210002  RH  044%=      5-min Rain = 0
KLO1 110836Z 25018KT 12/00 A2971 RMK A01 T01210002  RH  044%=      5-min Rain = 0
KLO1 110837Z 25018KT 12/00 A2971 RMK A01 T01210002  RH  044%=      5-min Rain = 0
KLO1 110838Z 25017KT 12/00 A2971 RMK A01 T01210002  RH  044%=      5-min Rain = 0
KLO1 110839Z 25019G24KT 12/00 A2971 RMK A01 T01210002  RH  044%=      5-min Rain = 0
KLO1 110840Z 25017KT 12/00 A2971 RMK A01 T01210002  RH  044%=      5-min Rain = 0
KLO1 110841Z 25017KT 12/00 A2971 RMK A01 T01210002  RH  044%=      5-min Rain = 0
KLO1 110842Z 25018KT 12/00 A2971 RMK A01 T01210002  RH  044%=      5-min Rain = 0
KLO1 110843Z 25017KT 12/00 A2971 RMK A01 T01210002  RH  044%=      5-min Rain = 0
KLO1 110844Z 25017KT 12/00 A2971 RMK A01 T01210002  RH  044%=      5-min Rain = 0
KLO1 110845Z 25017KT 12/00 A2971 RMK A01 T01200002  RH  044%=      5-min Rain = 0
KLO1 110846Z 25017KT 12/00 A2971 RMK A01 T01200002  RH  044%=      5-min Rain = 0
KLO1 110847Z 25016KT 12/00 A2971 RMK A01 T01200002  RH  044%=      5-min Rain = 0
KLO1 110848Z 25016KT 12/00 A2971 RMK A01 T01190002  RH  044%=      5-min Rain = 0
KLO1 110849Z 25016KT 12/00 A2971 RMK A01 T01190002  RH  044%=      5-min Rain = 0
KLO1 110850Z 25016KT 12/00 A2971 RMK A01 T01190002  RH  045%=      5-min Rain = 0
KLO1 110851Z 25018KT 12/00 A2971 RMK A01 T01180001  RH  045%=      5-min Rain = 0
KLO1 110852Z 25017KT 12/00 A2971 RMK A01 T01180002  RH  045%=      5-min Rain = 0
KLO1 110853Z 25017KT 12/00 A2971 RMK A01 T01190002  RH  045%=      5-min Rain = 0
KLO1 110854Z 25018KT 12/00 A2971 RMK A01 T01190002  RH  045%=      5-min Rain = 0
KLO1 110855Z 25016KT 12/00 A2971 RMK A01 T01180002  RH  045%=      5-min Rain = 0
KLO1 110856Z 25016KT 12/00 A2971 RMK A01 T01180002  RH  045%=      5-min Rain = 0
KLO1 110857Z 25016KT 12/00 A2971 RMK A01 T01180002  RH  045%=      5-min Rain = 0
KLO1 110858Z 25017G22KT 12/00 A2971 RMK A01 T01170002  RH  045%=      5-min Rain = 0
KLO1 110859Z 25015KT 12/00 A2971 RMK A01 T01170002  RH  045%=      5-min Rain = 0
KLO1 110900Z 25015KT 12/00 A2971 RMK A01 T01170002  RH  045%=      5-min Rain = 0
KLO1 110901Z 25015KT 12/00 A297 RMK A01 T01160002  RH  045%=      5-min Rain = 0
KLO1 110902Z 25015KT 12/00 A297 RMK A01 T01160002  RH  045%=      5-min Rain = 0
KLO1 110903Z 25016KT 12/00 A2971 RMK A01 T01160001  RH  045%=      5-min Rain = 0
KLO1 110904Z 25016KT 12/00 A2971 RMK A01 T01160001  RH  045%=      5-min Rain = 0
KLO1 110905Z 24016KT 12/00 A2971 RMK A01 T01160001  RH  045%=      5-min Rain = 0
KLO1 110906Z 25016KT 12/00 A2971 RMK A01 T01160001  RH  045%=      5-min Rain = 0
KLO1 110907Z 25015KT 12/00 A2971 RMK A01 T01160002  RH  045%=      5-min Rain = 0
KLO1 110908Z 25016KT 12/00 A2971 RMK A01 T01160001  RH  045%=      5-min Rain = 0
KLO1 110909Z 25017KT 12/00 A2971 RMK A01 T01160002  RH  045%=      5-min Rain = 0
KLO1 110910Z 25015KT 12/00 A2971 RMK A01 T01160002  RH  045%=      5-min Rain = 0
KLO1 110911Z 25014KT 12/00 A2971 RMK A01 T01150001  RH  045%=      5-min Rain = 0
KLO1 110912Z 25015KT 11/00 A2971 RMK A01 T01140001  RH  046%=      5-min Rain = 0
KLO1 110913Z 25015KT 11/00 A2971 RMK A01 T01140001  RH  046%=      5-min Rain = 0
KLO1 110914Z 25015KT 11/00 A2971 RMK A01 T01140001  RH  046%=      5-min Rain = 0
KLO1 110915Z 25014KT 11/00 A2971 RMK A01 T01140002  RH  046%=      5-min Rain = 0
KLO1 110916Z 25013KT 11/00 A2971 RMK A01 T01140002  RH  046%=      5-min Rain = 0
KLO1 110917Z 25015KT 11/00 A2971 RMK A01 T01140002  RH  046%=      5-min Rain = 0
KLO1 110918Z 25015KT 11/00 A2971 RMK A01 T01140002  RH  046%=      5-min Rain = 0
KLO1 110919Z 25014KT 12/00 A2971 RMK A01 T01150002  RH  046%=      5-min Rain = 0
KLO1 110920Z 25015KT 11/00 A2971 RMK A01 T01140002  RH  046%=      5-min Rain = 0
KLO1 110921Z 25015KT 11/00 A2971 RMK A01 T01140002  RH  046%=      5-min Rain = 0
KLO1 110922Z 25015KT 11/00 A2971 RMK A01 T01140002  RH  046%=      5-min Rain = 0
KLO1 110923Z 25014KT 12/00 A2971 RMK A01 T01150002  RH  046%=      5-min Rain = 0
KLO1 110924Z 25015KT 12/00 A2971 RMK A01 T01150002  RH  046%=      5-min Rain = 0
KLO1 110925Z 25013KT 11/00 A2971 RMK A01 T01140002  RH  046%=      5-min Rain = 0
KLO1 110926Z 25013KT 11/00 A2971 RMK A01 T01140002  RH  046%=      5-min Rain = 0
KLO1 110927Z 25013KT 12/00 A2971 RMK A01 T01150003  RH  046%=      5-min Rain = 0
KLO1 110928Z 25014KT 12/00 A2971 RMK A01 T01150003  RH  046%=      5-min Rain = 0
KLO1 110929Z 25013KT 11/00 A2971 RMK A01 T01140003  RH  046%=      5-min Rain = 0
KLO1 110930Z 26014KT 12/00 A2971 RMK A01 T01150003  RH  046%=      5-min Rain = 0
KLO1 110931Z 25012KT 12/00 A2971 RMK A01 T01150003  RH  046%=      5-min Rain = 0
KLO1 110932Z 25012KT 12/00 A2971 RMK A01 T01150003  RH  046%=      5-min Rain = 0
KLO1 110933Z 25013KT 12/00 A2971 RMK A01 T01150003  RH  046%=      5-min Rain = 0
KLO1 110934Z 25014KT 11/00 A2971 RMK A01 T01140003  RH  046%=      5-min Rain = 0
KLO1 110935Z 25013KT 12/00 A2971 RMK A01 T01150003  RH  046%=      5-min Rain = 0
KLO1 110936Z 26014KT 12/00 A2971 RMK A01 T01150004  RH  046%=      5-min Rain = 0
KLO1 110937Z 26014KT 12/00 A2971 RMK A01 T01160004  RH  046%=      5-min Rain = 0
KLO1 110938Z 25013KT 12/00 A2971 RMK A01 T01160003  RH  046%=      5-min Rain = 0
KLO1 110939Z 25012KT 12/00 A2971 RMK A01 T01160004  RH  046%=      5-min Rain = 0
KLO1 110940Z 25014KT 12/00 A2971 RMK A01 T01160004  RH  046%=      5-min Rain = 0
KLO1 110941Z 25014KT 12/00 A2971 RMK A01 T01160004  RH  046%=      5-min Rain = 0
KLO1 110942Z 26014KT 12/00 A2971 RMK A01 T01160004  RH  046%=      5-min Rain = 0
KLO1 110943Z 25014KT 12/00 A2971 RMK A01 T01160004  RH  046%=      5-min Rain = 0
KLO1 110944Z 25013KT 12/00 A2971 RMK A01 T01160004  RH  046%=      5-min Rain = 0
KLO1 110945Z 25012KT 12/00 A2971 RMK A01 T01160004  RH  046%=      5-min Rain = 0
KLO1 110946Z 25014KT 12/00 A2971 RMK A01 T01170004  RH  046%=      5-min Rain = 0
KLO1 110947Z 25014KT 12/00 A2971 RMK A01 T01170004  RH  046%=      5-min Rain = 0
KLO1 110948Z 25014KT 12/00 A2971 RMK A01 T01180004  RH  046%=      5-min Rain = 0
KLO1 110949Z 26013KT 12/00 A2972 RMK A01 T01180004  RH  046%=      5-min Rain = 0
KLO1 110950Z 25015KT 12/00 A2971 RMK A01 T01180004  RH  046%=      5-min Rain = 0
KLO1 110951Z 26013KT 12/00 A2972 RMK A01 T01180004  RH  046%=      5-min Rain = 0
KLO1 110952Z 25013KT 12/00 A2971 RMK A01 T01180004  RH  046%=      5-min Rain = 0
KLO1 110953Z 26012KT 12/00 A2971 RMK A01 T01180004  RH  046%=      5-min Rain = 0
KLO1 110954Z 26013KT 12/01 A2972 RMK A01 T01180005  RH  046%=      5-min Rain = 0
KLO1 110955Z 26013KT 12/01 A2972 RMK A01 T01180005  RH  046%=      5-min Rain = 0
KLO1 110956Z 26013KT 12/00 A2972 RMK A01 T01170004  RH  046%=      5-min Rain = 0
KLO1 110957Z 26013KT 12/01 A2972 RMK A01 T01180005  RH  046%=      5-min Rain = 0
KLO1 110958Z 26012KT 12/01 A2972 RMK A01 T01180005  RH  046%=      5-min Rain = 0
KLO1 110959Z 26012KT 12/01 A2972 RMK A01 T01170005  RH  046%=      5-min Rain = 0
KLO1 111000Z 25013KT 12/01 A2971 RMK A01 T01170005  RH  046%=      5-min Rain = 0
KLO1 111001Z 25014KT 12/01 A2972 RMK A01 T01170005  RH  046%=      5-min Rain = 0
KLO1 111002Z 26013KT 12/01 A2972 RMK A01 T01170005  RH  046%=      5-min Rain = 0
KLO1 111003Z 26011KT 12/01 A2972 RMK A01 T01170005  RH  046%=      5-min Rain = 0
KLO1 111004Z 26012KT 12/01 A2971 RMK A01 T01170005  RH  046%=      5-min Rain = 0
KLO1 111005Z 25014KT 12/01 A2972 RMK A01 T01170005  RH  046%=      5-min Rain = 0
KLO1 111006Z 25013KT 12/01 A2972 RMK A01 T01170005  RH  046%=      5-min Rain = 0
KLO1 111007Z 25012KT 12/01 A2972 RMK A01 T01170005  RH  046%=      5-min Rain = 0
KLO1 111008Z 25013KT 12/01 A2972 RMK A01 T01170005  RH  046%=      5-min Rain = 0
KLO1 111009Z 26013KT 12/01 A2972 RMK A01 T01170005  RH  046%=      5-min Rain = 0
KLO1 111010Z 26014KT 12/01 A2972 RMK A01 T01170005  RH  046%=      5-min Rain = 0
KLO1 111011Z 26014KT 12/01 A2972 RMK A01 T01170006  RH  046%=      5-min Rain = 0
KLO1 111012Z 26013KT 12/01 A2972 RMK A01 T01170006  RH  046%=      5-min Rain = 0
KLO1 111013Z 26012KT 12/01 A2972 RMK A01 T01170006  RH  046%=      5-min Rain = 0
KLO1 111014Z 26014KT 12/01 A2972 RMK A01 T01170006  RH  046%=      5-min Rain = 0
KLO1 111015Z 26012KT 12/01 A2972 RMK A01 T01170006  RH  046%=      5-min Rain = 0
KLO1 111016Z 26013KT 12/01 A2972 RMK A01 T01170006  RH  046%=      5-min Rain = 0
KLO1 111017Z 26012KT 12/01 A2972 RMK A01 T01170006  RH  047%=      5-min Rain = 0
KLO1 111018Z 26014KT 12/01 A2972 RMK A01 T01170006  RH  047%=      5-min Rain = 0
KLO1 111019Z 26013KT 12/01 A2972 RMK A01 T01170006  RH  047%=      5-min Rain = 0
KLO1 111020Z 25012KT 12/01 A2972 RMK A01 T01170006  RH  047%=      5-min Rain = 0
KLO1 111021Z 26013KT 12/01 A2972 RMK A01 T01170006  RH  047%=      5-min Rain = 0
KLO1 111022Z 26013KT 12/01 A2972 RMK A01 T01170006  RH  047%=      5-min Rain = 0
KLO1 111023Z 26011KT 12/01 A2972 RMK A01 T01170006  RH  047%=      5-min Rain = 0
KLO1 111024Z 26012KT 12/01 A2972 RMK A01 T01160006  RH  047%=      5-min Rain = 0
KLO1 111025Z 26012KT 12/01 A2972 RMK A01 T01160007  RH  047%=      5-min Rain = 0
KLO1 111026Z 26013KT 12/01 A2972 RMK A01 T01160007  RH  047%=      5-min Rain = 0
KLO1 111027Z 26012KT 12/01 A2972 RMK A01 T01160006  RH  047%=      5-min Rain = 0
KLO1 111028Z 26012KT 12/01 A2972 RMK A01 T01170007  RH  047%=      5-min Rain = 0
KLO1 111029Z 26011KT 12/01 A2972 RMK A01 T01170007  RH  047%=      5-min Rain = 0
KLO1 111030Z 26012KT 12/01 A2972 RMK A01 T01160007  RH  047%=      5-min Rain = 0
KLO1 111031Z 26011KT 12/01 A2972 RMK A01 T01160006  RH  047%=      5-min Rain = 0
KLO1 111032Z 26011KT 12/01 A2972 RMK A01 T01160006  RH  047%=      5-min Rain = 0
KLO1 111033Z 26011KT 12/01 A2972 RMK A01 T01160006  RH  047%=      5-min Rain = 0
KLO1 111034Z 25012KT 12/01 A2972 RMK A01 T01160007  RH  047%=      5-min Rain = 0
KLO1 111035Z 25013KT 12/01 A2972 RMK A01 T01150006  RH  047%=      5-min Rain = 0
KLO1 111036Z 26014KT 12/01 A2972 RMK A01 T01160006  RH  047%=      5-min Rain = 0
KLO1 111037Z 25014KT 12/01 A2972 RMK A01 T01160006  RH  047%=      5-min Rain = 0
KLO1 111038Z 26013KT 12/01 A2972 RMK A01 T01170006  RH  047%=      5-min Rain = 0
KLO1 111039Z 26013KT 12/01 A2972 RMK A01 T01170006  RH  046%=      5-min Rain = 0
KLO1 111040Z 26013KT 12/01 A2972 RMK A01 T01170006  RH  047%=      5-min Rain = 0
KLO1 111041Z 26012KT 12/01 A2972 RMK A01 T01170006  RH  046%=      5-min Rain = 0
KLO1 111042Z 26012KT 12/01 A2972 RMK A01 T01170006  RH  046%=      5-min Rain = 0
KLO1 111043Z 26012KT 12/01 A2972 RMK A01 T01160006  RH  047%=      5-min Rain = 0
KLO1 111044Z 26012KT 12/01 A2972 RMK A01 T01160006  RH  047%=      5-min Rain = 0
KLO1 111045Z 26011KT 12/01 A2972 RMK A01 T01160006  RH  047%=      5-min Rain = 0
KLO1 111046Z 26011KT 12/01 A2972 RMK A01 T01160005  RH  047%=      5-min Rain = 0
KLO1 111047Z 26010KT 12/01 A2972 RMK A01 T01160006  RH  047%=      5-min Rain = 0
KLO1 111048Z 26013KT 12/01 A2972 RMK A01 T01160005  RH  047%=      5-min Rain = 0
KLO1 111049Z 26013KT 12/01 A2972 RMK A01 T01160006  RH  047%=      5-min Rain = 0
KLO1 111050Z 26012KT 12/01 A2972 RMK A01 T01170006  RH  046%=      5-min Rain = 0
KLO1 111051Z 26012KT 12/01 A2972 RMK A01 T01170006  RH  046%=      5-min Rain = 0
KLO1 111052Z 26011KT 12/01 A2972 RMK A01 T01170005  RH  046%=      5-min Rain = 0
KLO1 111053Z 26011KT 12/01 A2972 RMK A01 T01160005  RH  046%=      5-min Rain = 0
KLO1 111054Z 26012KT 12/01 A2972 RMK A01 T01160005  RH  047%=      5-min Rain = 0
KLO1 111055Z 26011KT 12/01 A2972 RMK A01 T01160006  RH  047%=      5-min Rain = 0
KLO1 111056Z 26012KT 12/01 A2972 RMK A01 T01150006  RH  047%=      5-min Rain = 0
KLO1 111057Z 26011KT 12/01 A2972 RMK A01 T01150005  RH  047%=      5-min Rain = 0
KLO1 111058Z 26011KT 12/01 A2972 RMK A01 T01150005  RH  047%=      5-min Rain = 0
KLO1 111059Z 26013KT 12/01 A2972 RMK A01 T01150006  RH  047%=      5-min Rain = 0
KLO1 111100Z 26013KT 12/01 A2972 RMK A01 T01150006  RH  047%=      5-min Rain = 0
KLO1 111101Z 26013KT 12/01 A2972 RMK A01 T01150006  RH  047%=      5-min Rain = 0
KLO1 111102Z 26012KT 12/01 A2972 RMK A01 T01150006  RH  047%=      5-min Rain = 0
KLO1 111103Z 26013KT 12/01 A2972 RMK A01 T01150006  RH  047%=      5-min Rain = 0
KLO1 111104Z 26014KT 12/01 A2972 RMK A01 T01150005  RH  047%=      5-min Rain = 0
KLO1 111105Z 26013KT 12/01 A2972 RMK A01 T01150005  RH  047%=      5-min Rain = 0
KLO1 111106Z 26014KT 12/01 A2972 RMK A01 T01150005  RH  047%=      5-min Rain = 0
KLO1 111107Z 26013KT 12/01 A2972 RMK A01 T01150005  RH  047%=      5-min Rain = 0
KLO1 111108Z 26013KT 12/01 A2972 RMK A01 T01150005  RH  047%=      5-min Rain = 0
KLO1 111109Z 26012KT 12/01 A2972 RMK A01 T01150005  RH  047%=      5-min Rain = 0
KLO1 111110Z 26012KT 11/01 A2972 RMK A01 T01140005  RH  047%=      5-min Rain = 0
KLO1 111111Z 26013KT 11/01 A2972 RMK A01 T01140005  RH  047%=      5-min Rain = 0
KLO1 111112Z 26014KT 11/01 A2972 RMK A01 T01140005  RH  047%=      5-min Rain = 0
KLO1 111113Z 26013KT 11/01 A2972 RMK A01 T01140005  RH  047%=      5-min Rain = 0
KLO1 111114Z 26013KT 12/01 A2972 RMK A01 T01150006  RH  047%=      5-min Rain = 0
KLO1 111115Z 26013KT 11/01 A2972 RMK A01 T01140005  RH  047%=      5-min Rain = 0
KLO1 111116Z 26013KT 12/01 A2972 RMK A01 T01150006  RH  047%=      5-min Rain = 0
KLO1 111117Z 26013KT 11/01 A2972 RMK A01 T01140006  RH  047%=      5-min Rain = 0
KLO1 111118Z 26014KT 11/01 A2972 RMK A01 T01140006  RH  047%=      5-min Rain = 0
KLO1 111119Z 26012KT 11/01 A2972 RMK A01 T01140006  RH  047%=      5-min Rain = 0
KLO1 111120Z 26014KT 11/01 A2972 RMK A01 T01140006  RH  047%=      5-min Rain = 0
KLO1 111121Z 26014KT 11/01 A2972 RMK A01 T01140006  RH  047%=      5-min Rain = 0
KLO1 111122Z 26016KT 11/01 A2972 RMK A01 T01140006  RH  047%=      5-min Rain = 0
KLO1 111123Z 27014KT 12/01 A2972 RMK A01 T01150006  RH  047%=      5-min Rain = 0
KLO1 111124Z 26012KT 12/01 A2972 RMK A01 T01150006  RH  047%=      5-min Rain = 0
KLO1 111125Z 26014KT 11/01 A2972 RMK A01 T01140006  RH  047%=      5-min Rain = 0
KLO1 111126Z 27014KT 11/01 A2972 RMK A01 T01130006  RH  047%=      5-min Rain = 0
KLO1 111127Z 26013G18KT 11/01 A2973 RMK A01 T01140006  RH  048%=      5-min Rain = 0
KLO1 111128Z 27014KT 11/01 A2973 RMK A01 T01140006  RH  048%=      5-min Rain = 0
KLO1 111129Z 27013KT 11/01 A2973 RMK A01 T01130006  RH  048%=      5-min Rain = 0
KLO1 111130Z 26013KT 11/01 A2973 RMK A01 T01130006  RH  047%=      5-min Rain = 0
KLO1 111131Z 27014KT 11/01 A2973 RMK A01 T01140006  RH  048%=      5-min Rain = 0
KLO1 111132Z 26013KT 11/01 A2973 RMK A01 T01130006  RH  048%=      5-min Rain = 0
KLO1 111133Z 26014KT 11/01 A2973 RMK A01 T01140006  RH  048%=      5-min Rain = 0
KLO1 111134Z 26013KT 11/01 A2973 RMK A01 T01130006  RH  048%=      5-min Rain = 0
KLO1 111135Z 27013KT 11/01 A2973 RMK A01 T01130006  RH  048%=      5-min Rain = 0
KLO1 111136Z 27014KT 11/01 A2973 RMK A01 T01130006  RH  048%=      5-min Rain = 0
KLO1 111137Z 26014KT 11/01 A2973 RMK A01 T01130006  RH  048%=      5-min Rain = 0
KLO1 111138Z 26013KT 11/01 A2973 RMK A01 T01130006  RH  048%=      5-min Rain = 0
KLO1 111139Z 26015KT 11/01 A2973 RMK A01 T01130006  RH  048%=      5-min Rain = 0
KLO1 111140Z 27013KT 11/01 A2973 RMK A01 T01140007  RH  048%=      5-min Rain = 0
KLO1 111141Z 26014KT 11/01 A2973 RMK A01 T01140006  RH  048%=      5-min Rain = 0
KLO1 111142Z 27013KT 11/01 A2973 RMK A01 T01130007  RH  048%=      5-min Rain = 0
KLO1 111143Z 26013KT 11/01 A2973 RMK A01 T01130007  RH  048%=      5-min Rain = 0
KLO1 111144Z 26015KT 11/01 A2973 RMK A01 T01130007  RH  048%=      5-min Rain = 0
KLO1 111145Z 26013KT 11/01 A2973 RMK A01 T01130006  RH  048%=      5-min Rain = 0
KLO1 111146Z 27013G18KT 11/01 A2973 RMK A01 T01140007  RH  048%=      5-min Rain = 0
KLO1 111147Z 27014G21KT 11/01 A2973 RMK A01 T01140007  RH  048%=      5-min Rain = 0
KLO1 111148Z 27014KT 11/01 A2973 RMK A01 T01140007  RH  048%=      5-min Rain = 0
KLO1 111149Z 27014KT 11/01 A2973 RMK A01 T01140007  RH  048%=      5-min Rain = 0
KLO1 111150Z 27014KT 11/01 A2973 RMK A01 T01140007  RH  048%=      5-min Rain = 0
KLO1 111151Z 27014KT 11/01 A2973 RMK A01 T01140007  RH  048%=      5-min Rain = 0
KLO1 111152Z 27014G19KT 11/01 A2973 RMK A01 T01140007  RH  048%=      5-min Rain = 0
KLO1 111153Z 27014KT 12/01 A2973 RMK A01 T01150007  RH  047%=      5-min Rain = 0
KLO1 111154Z 27012KT 11/01 A2973 RMK A01 T01140007  RH  047%=      5-min Rain = 0
KLO1 111155Z 27014KT 11/01 A2974 RMK A01 T01140007  RH  048%=      5-min Rain = 0
KLO1 111156Z 27014KT 11/01 A2974 RMK A01 T01130006  RH  048%=      5-min Rain = 0
KLO1 111157Z 27014KT 11/01 A2974 RMK A01 T01130006  RH  048%=      5-min Rain = 0
KLO1 111158Z 27012KT 11/01 A2974 RMK A01 T01130006  RH  048%=      5-min Rain = 0
KLO1 111159Z 27011KT 11/01 A2974 RMK A01 T01130006  RH  048%=      5-min Rain = 0
KLO1 111200Z 27013KT 11/01 A2974 RMK A01 T01120006  RH  048%=      5-min Rain = 0
KLO1 111201Z 27013KT 11/01 A2974 RMK A01 T01120006  RH  048%=      5-min Rain = 0
KLO1 111202Z 27013KT 11/01 A2974 RMK A01 T01120006  RH  048%=      5-min Rain = 0
KLO1 111203Z 28015KT 11/01 A2974 RMK A01 T01120006  RH  048%=      5-min Rain = 0
KLO1 111204Z 27014KT 11/01 A2974 RMK A01 T01120006  RH  048%=      5-min Rain = 0
KLO1 111205Z 28013KT 11/01 A2974 RMK A01 T01120006  RH  048%=      5-min Rain = 0
KLO1 111206Z 28014KT 11/01 A2974 RMK A01 T01120006  RH  048%=      5-min Rain = 0
KLO1 111207Z 28014KT 11/01 A2974 RMK A01 T01110006  RH  048%=      5-min Rain = 0
KLO1 111208Z 28012KT 11/01 A2974 RMK A01 T01120007  RH  048%=      5-min Rain = 0
KLO1 111209Z 27013KT 11/01 A2974 RMK A01 T01110006  RH  048%=      5-min Rain = 0
KLO1 111210Z 27013KT 11/01 A2974 RMK A01 T01110006  RH  049%=      5-min Rain = 0
KLO1 111211Z 28015KT 11/01 A2974 RMK A01 T01100006  RH  049%=      5-min Rain = 0
KLO1 111212Z 28013KT 11/01 A2975 RMK A01 T01110006  RH  049%=      5-min Rain = 0
KLO1 111213Z 28013KT 11/01 A2975 RMK A01 T01100006  RH  049%=      5-min Rain = 0
KLO1 111214Z 28011KT 11/01 A2975 RMK A01 T01090006  RH  049%=      5-min Rain = 0
KLO1 111215Z 28011KT 11/01 A2975 RMK A01 T01080006  RH  049%=      5-min Rain = 0
KLO1 111216Z 28011KT 11/01 A2975 RMK A01 T01070006  RH  050%=      5-min Rain = 0
KLO1 111217Z 28011KT 11/01 A2975 RMK A01 T01070006  RH  050%=      5-min Rain = 0
KLO1 111218Z 28013KT 11/01 A2975 RMK A01 T01070006  RH  050%=      5-min Rain = 0
KLO1 111219Z 28011KT 11/01 A2975 RMK A01 T01070006  RH  050%=      5-min Rain = 0
KLO1 111220Z 28013KT 11/01 A2976 RMK A01 T01070006  RH  050%=      5-min Rain = 0
KLO1 111221Z 29011KT 11/01 A2976 RMK A01 T01080007  RH  050%=      5-min Rain = 0
KLO1 111222Z 28011KT 11/01 A2976 RMK A01 T01070007  RH  050%=      5-min Rain = 0
KLO1 111223Z 28012KT 11/01 A2976 RMK A01 T01070007  RH  050%=      5-min Rain = 0
KLO1 111224Z 29011KT 11/01 A2976 RMK A01 T01070007  RH  050%=      5-min Rain = 0
KLO1 111225Z 28015G20KT 11/01 A2976 RMK A01 T01070007  RH  050%=      5-min Rain = 0
KLO1 111226Z 30017KT 11/01 A2976 RMK A01 T01090009  RH  050%=      5-min Rain = 0
KLO1 111227Z 30013KT 11/01 A2976 RMK A01 T01110010  RH  049%=      5-min Rain = 0
KLO1 111228Z 30016G22KT 11/01 A2976 RMK A01 T01120009  RH  049%=      5-min Rain = 0
KLO1 111229Z 30018KT 11/01 A2977 RMK A01 T01120010  RH  050%=      5-min Rain = 0
KLO1 111230Z 31021KT 11/01 A2977 RMK A01 T01130011  RH  050%=      5-min Rain = 0
KLO1 111231Z 32024G29KT 12/01 A2977 RMK A01 T01150013  RH  050%=      5-min Rain = 0
KLO1 111232Z 31022KT 12/01 A2977 RMK A01 T01170013  RH  049%=      5-min Rain = 0
KLO1 111233Z 32020G25KT 12/01 A2977 RMK A01 T01170013  RH  049%=      5-min Rain = 0
KLO1 111234Z 32020G25KT 12/01 A2977 RMK A01 T01170014  RH  049%=      5-min Rain = 0
KLO1 111235Z 31023G28KT 12/01 A2977 RMK A01 T01170014  RH  049%=      5-min Rain = 0
KLO1 111236Z 31024KT 12/01 A2977 RMK A01 T01160014  RH  049%=      5-min Rain = 0
KLO1 111237Z 31020KT 12/02 A2977 RMK A01 T01170015  RH  050%=      5-min Rain = 0
KLO1 111238Z 31019G27KT 12/02 A2978 RMK A01 T01160015  RH  050%=      5-min Rain = 0
KLO1 111239Z 32021G26KT 12/02 A2977 RMK A01 T01150016  RH  050%=      5-min Rain = 0
KLO1 111240Z 32021KT 12/02 A2978 RMK A01 T01150017  RH  051%=      5-min Rain = 0
KLO1 111241Z 32022KT 12/02 A2978 RMK A01 T01150018  RH  051%=      5-min Rain = 0
KLO1 111242Z 33020KT 12/02 A2978 RMK A01 T01150019  RH  051%=      5-min Rain = 0
KLO1 111243Z 32018KT 12/02 A2978 RMK A01 T01150019  RH  052%=      5-min Rain = 0
KLO1 111244Z 33017KT 12/02 A2978 RMK A01 T01150019  RH  052%=      5-min Rain = 0
KLO1 111245Z 33020G26KT 12/02 A2978 RMK A01 T01150019  RH  052%=      5-min Rain = 0
KLO1 111246Z 33019G26KT 11/02 A2978 RMK A01 T01140020  RH  052%=      5-min Rain = 0
KLO1 111247Z 33019G25KT 12/02 A2978 RMK A01 T01150020  RH  052%=      5-min Rain = 0
KLO1 111248Z 33020KT 11/02 A2978 RMK A01 T01140020  RH  052%=      5-min Rain = 0
KLO1 111249Z 33019G25KT 12/02 A2978 RMK A01 T01150021  RH  053%=      5-min Rain = 0
KLO1 111250Z 33016KT 11/02 A2979 RMK A01 T01140021  RH  053%=      5-min Rain = 0
KLO1 111251Z 33016KT 11/02 A2979 RMK A01 T01140021  RH  053%=      5-min Rain = 0
KLO1 111252Z 33017KT 11/02 A2979 RMK A01 T01140021  RH  053%=      5-min Rain = 0
KLO1 111253Z 33021KT 11/02 A2979 RMK A01 T01140022  RH  053%=      5-min Rain = 0
KLO1 111254Z 34021KT 11/02 A2979 RMK A01 T01140022  RH  053%=      5-min Rain = 0
KLO1 111255Z 34020KT 11/02 A2979 RMK A01 T01130023  RH  054%=      5-min Rain = 0
KLO1 111256Z 34018G23KT 11/02 A2979 RMK A01 T01130023  RH  054%=      5-min Rain = 0
KLO1 111257Z 35018KT 11/02 A2979 RMK A01 T01130023  RH  054%=      5-min Rain = 0
KLO1 111258Z 35020KT 11/02 A2979 RMK A01 T01130024  RH  054%=      5-min Rain = 0
KLO1 111259Z 34018G23KT 11/02 A2979 RMK A01 T01130024  RH  054%=      5-min Rain = 0
KLO1 111300Z 34020G27KT 11/02 A2979 RMK A01 T01120024  RH  055%=      5-min Rain = 0
KLO1 111301Z 35021KT 11/02 A298 RMK A01 T01120024  RH  055%=      5-min Rain = 0
KLO1 111302Z 34017KT 11/03 A298 RMK A01 T01120025  RH  055%=      5-min Rain = 0
KLO1 111303Z 34019G24KT 11/02 A298 RMK A01 T01110024  RH  055%=      5-min Rain = 0
KLO1 111304Z 34017G22KT 11/03 A298 RMK A01 T01110025  RH  055%=      5-min Rain = 0
KLO1 111305Z 35015KT 11/03 A298 RMK A01 T01100025  RH  056%=      5-min Rain = 0
KLO1 111306Z 35014G19KT 11/03 A298 RMK A01 T01100025  RH  056%=      5-min Rain = 0
KLO1 111307Z 34017KT 11/03 A298 RMK A01 T01100025  RH  056%=      5-min Rain = 0
KLO1 111308Z 34019G24KT 11/03 A298 RMK A01 T01090025  RH  056%=      5-min Rain = 0
KLO1 111309Z 35018G23KT 11/03 A2981 RMK A01 T01090025  RH  056%=      5-min Rain = 0
KLO1 111310Z 35013G18KT 11/03 A2981 RMK A01 T01090025  RH  056%=      5-min Rain = 0
KLO1 111311Z 34015KT 11/03 A2981 RMK A01 T01090025  RH  056%=      5-min Rain = 0
KLO1 111312Z 35015G20KT 11/03 A2981 RMK A01 T01090025  RH  056%=      5-min Rain = 0
KLO1 111313Z 35016KT 11/03 A2981 RMK A01 T01090025  RH  056%=      5-min Rain = 0
KLO1 111314Z 34018G23KT 11/03 A2981 RMK A01 T01090025  RH  056%=      5-min Rain = 0
KLO1 111315Z 35019KT 11/02 A2981 RMK A01 T01090024  RH  056%=      5-min Rain = 0
KLO1 111316Z 35017G23KT 11/02 A2982 RMK A01 T01090022  RH  055%=      5-min Rain = 0
KLO1 111317Z 34018KT 11/02 A2982 RMK A01 T01090022  RH  055%=      5-min Rain = 0
KLO1 111318Z 34018G23KT 11/02 A2982 RMK A01 T01080021  RH  055%=      5-min Rain = 0
KLO1 111319Z 35025G31KT 11/02 A2982 RMK A01 T01080020  RH  054%=      5-min Rain = 0
KLO1 111320Z 35019G24KT 11/02 A2982 RMK A01 T01080018  RH  054%=      5-min Rain = 0
KLO1 111321Z 35021G27KT 11/02 A2982 RMK A01 T01080017  RH  053%=      5-min Rain = 0
KLO1 111322Z 36017KT 11/02 A2982 RMK A01 T01080016  RH  053%=      5-min Rain = 0
KLO1 111323Z 34020G27KT 11/02 A2982 RMK A01 T01080016  RH  053%=      5-min Rain = 0
KLO1 111324Z 35017G26KT 11/02 A2983 RMK A01 T01070015  RH  053%=      5-min Rain = 0
KLO1 111325Z 35020G26KT 11/02 A2983 RMK A01 T01070015  RH  053%=      5-min Rain = 0
KLO1 111326Z 34019G25KT 11/02 A2983 RMK A01 T01070015  RH  053%=      5-min Rain = 0
KLO1 111327Z 34018KT 11/01 A2983 RMK A01 T01070014  RH  053%=      5-min Rain = 0
KLO1 111328Z 34020G27KT 11/01 A2983 RMK A01 T01070014  RH  053%=      5-min Rain = 0
KLO1 111329Z 34022KT 11/01 A2983 RMK A01 T01070014  RH  053%=      5-min Rain = 0
KLO1 111330Z 35022G28KT 11/01 A2984 RMK A01 T01060013  RH  052%=      5-min Rain = 0
KLO1 111331Z 36018G23KT 11/01 A2984 RMK A01 T01060012  RH  052%=      5-min Rain = 0
KLO1 111332Z 36018G24KT 11/01 A2984 RMK A01 T01060012  RH  052%=      5-min Rain = 0
KLO1 111333Z 00021G27KT 11/01 A2984 RMK A01 T01060012  RH  052%=      5-min Rain = 0
KLO1 111334Z 35022KT 11/01 A2984 RMK A01 T01060010  RH  052%=      5-min Rain = 0
KLO1 111335Z 36018KT 11/01 A2985 RMK A01 T01060010  RH  051%=      5-min Rain = 0
KLO1 111336Z 36024G29KT 11/01 A2985 RMK A01 T01050010  RH  052%=      5-min Rain = 0
KLO1 111337Z 00020KT 11/01 A2985 RMK A01 T01050009  RH  052%=      5-min Rain = 0
KLO1 111338Z 01017G23KT 10/01 A2985 RMK A01 T01040009  RH  052%=      5-min Rain = 0
KLO1 111339Z 01019KT 10/01 A2985 RMK A01 T01040009  RH  052%=      5-min Rain = 0
KLO1 111340Z 01021KT 10/01 A2985 RMK A01 T01030009  RH  052%=      5-min Rain = 0
KLO1 111341Z 00020KT 10/01 A2985 RMK A01 T01030009  RH  052%=      5-min Rain = 0
KLO1 111342Z 36018KT 10/01 A2985 RMK A01 T01030009  RH  052%=      5-min Rain = 0
KLO1 111343Z 35020G25KT 10/01 A2985 RMK A01 T01030009  RH  052%=      5-min Rain = 0
KLO1 111344Z 36017KT 10/01 A2986 RMK A01 T01020009  RH  052%=      5-min Rain = 0
KLO1 111345Z 36016KT 10/01 A2986 RMK A01 T01020009  RH  052%=      5-min Rain = 0
KLO1 111346Z 36016KT 10/01 A2986 RMK A01 T01020009  RH  053%=      5-min Rain = 0
KLO1 111347Z 35014KT 10/01 A2986 RMK A01 T01020009  RH  053%=      5-min Rain = 0
KLO1 111348Z 00015G20KT 10/01 A2986 RMK A01 T01010009  RH  053%=      5-min Rain = 0
KLO1 111349Z 35014KT 10/01 A2986 RMK A01 T01010009  RH  053%=      5-min Rain = 0
KLO1 111350Z 35012KT 10/01 A2986 RMK A01 T01010009  RH  053%=      5-min Rain = 0
KLO1 111351Z 35014KT 10/01 A2986 RMK A01 T01010009  RH  053%=      5-min Rain = 0
KLO1 111352Z 35012KT 10/01 A2987 RMK A01 T01000010  RH  053%=      5-min Rain = 0
KLO1 111353Z 00013KT 10/01 A2987 RMK A01 T01000010  RH  053%=      5-min Rain = 0
KLO1 111354Z 35013KT 10/01 A2987 RMK A01 T01000010  RH  053%=      5-min Rain = 0
KLO1 111355Z 35012KT 10/01 A2987 RMK A01 T01000010  RH  054%=      5-min Rain = 0
KLO1 111356Z 35014KT 10/01 A2987 RMK A01 T01000010  RH  054%=      5-min Rain = 0
KLO1 111357Z 36013KT 10/01 A2987 RMK A01 T01000011  RH  054%=      5-min Rain = 0
KLO1 111358Z 34015G20KT 10/01 A2988 RMK A01 T01000011  RH  054%=      5-min Rain = 0
KLO1 111359Z 34017KT 10/01 A2988 RMK A01 T00990011  RH  054%=      5-min Rain = 0
KLO1 111400Z 34014KT 10/01 A2988 RMK A01 T00990011  RH  054%=      5-min Rain = 0
KLO1 111401Z 34019KT 10/01 A2988 RMK A01 T00990011  RH  054%=      5-min Rain = 0
KLO1 111402Z 33019KT 10/01 A2988 RMK A01 T00980010  RH  054%=      5-min Rain = 0
KLO1 111403Z 33022KT 10/01 A2988 RMK A01 T00970009  RH  054%=      5-min Rain = 0
KLO1 111404Z 34020KT 10/01 A2989 RMK A01 T00960008  RH  054%=      5-min Rain = 0
KLO1 111405Z 34017G22KT 10/01 A2989 RMK A01 T00950008  RH  054%=      5-min Rain = 0
KLO1 111406Z 34018KT 10/01 A2989 RMK A01 T00950008  RH  055%=      5-min Rain = 0
KLO1 111407Z 34021KT 09/01 A299 RMK A01 T00940008  RH  055%=      5-min Rain = 0
KLO1 111408Z 34019G26KT 09/01 A299 RMK A01 T00940008  RH  055%=      5-min Rain = 0
KLO1 111409Z 35021KT 09/01 A299 RMK A01 T00940008  RH  055%=      5-min Rain = 0
KLO1 111410Z 00025G32KT 09/01 A2991 RMK A01 T00940007  RH  055%=      5-min Rain = 0
KLO1 111411Z 36026G32KT 09/00 A2991 RMK A01 T00920004  RH  054%=      5-min Rain = 0
KLO1 111412Z 35017G23KT 09/00 A2991 RMK A01 T00910004  RH  054%=      5-min Rain = 0
KLO1 111413Z 35017G22KT 09/00 A2991 RMK A01 T00900003  RH  055%=      5-min Rain = 0
KLO1 111414Z 35019KT 09/00 A2991 RMK A01 T00890003  RH  055%=      5-min Rain = 0
KLO1 111415Z 35018KT 09/00 A2992 RMK A01 T00890002  RH  054%=      5-min Rain = 0
KLO1 111416Z 00024G31KT 09/00 A2992 RMK A01 T00880001  RH  054%=      5-min Rain = 0
KLO1 111417Z 36020G25KT 09/00 A2992 RMK A01 T008800-0  RH  054%=      5-min Rain = 0
KLO1 111418Z 36017KT 09/00 A2992 RMK A01 T008700-0  RH  054%=      5-min Rain = 0
KLO1 111419Z 00022KT 09/00 A2992 RMK A01 T008700-0  RH  054%=      5-min Rain = 0
KLO1 111420Z 00023KT 09/M00 A2992 RMK A01 T00871001  RH  054%=      5-min Rain = 0
KLO1 111421Z 01021KT 09/M00 A2992 RMK A01 T00861001  RH  054%=      5-min Rain = 0
KLO1 111422Z 00020KT 09/M00 A2992 RMK A01 T00861001  RH  055%=      5-min Rain = 0
KLO1 111423Z 01021KT 09/M00 A2992 RMK A01 T00851001  RH  055%=      5-min Rain = 0
KLO1 111424Z 01016G21KT 09/M00 A2992 RMK A01 T00851001  RH  055%=      5-min Rain = 0
KLO1 111425Z 00017G22KT 09/M00 A2993 RMK A01 T00851001  RH  055%=      5-min Rain = 0
KLO1 111426Z 01017G22KT 08/M00 A2993 RMK A01 T00841001  RH  055%=      5-min Rain = 0
KLO1 111427Z 00020KT 08/M00 A2993 RMK A01 T00841001  RH  055%=      5-min Rain = 0
KLO1 111428Z 36021G26KT 08/M00 A2993 RMK A01 T00841001  RH  055%=      5-min Rain = 0
KLO1 111429Z 01020KT 08/M00 A2993 RMK A01 T00831001  RH  055%=      5-min Rain = 0
KLO1 111430Z 00020KT 08/M00 A2993 RMK A01 T00831001  RH  056%=      5-min Rain = 0
KLO1 111431Z 36017KT 08/M00 A2993 RMK A01 T00821001  RH  056%=      5-min Rain = 0
KLO1 111432Z 01020KT 08/00 A2994 RMK A01 T008200-0  RH  056%=      5-min Rain = 0
KLO1 111433Z 00018KT 08/M00 A2994 RMK A01 T00821001  RH  056%=      5-min Rain = 0
KLO1 111434Z 00016G23KT 08/00 A2994 RMK A01 T008200-0  RH  056%=      5-min Rain = 0
KLO1 111435Z 36020KT 08/M00 A2994 RMK A01 T00821001  RH  056%=      5-min Rain = 0
KLO1 111436Z 00019G24KT 08/M00 A2994 RMK A01 T00821001  RH  056%=      5-min Rain = 0
KLO1 111437Z 00020KT 08/M00 A2994 RMK A01 T00811001  RH  056%=      5-min Rain = 0
KLO1 111438Z 01015G20KT 08/M00 A2994 RMK A01 T00811001  RH  056%=      5-min Rain = 0
KLO1 111439Z 00017KT 08/M00 A2994 RMK A01 T00811001  RH  056%=      5-min Rain = 0
KLO1 111440Z 01018KT 08/M00 A2995 RMK A01 T00811001  RH  056%=      5-min Rain = 0
KLO1 111441Z 00018KT 08/M00 A2995 RMK A01 T00811001  RH  056%=      5-min Rain = 0
KLO1 111442Z 00018G24KT 08/M00 A2995 RMK A01 T00811001  RH  056%=      5-min Rain = 0
KLO1 111443Z 36019KT 08/M00 A2995 RMK A01 T00801002  RH  056%=      5-min Rain = 0
KLO1 111444Z 36016KT 08/M00 A2995 RMK A01 T00801002  RH  056%=      5-min Rain = 0
KLO1 111445Z 01015KT 08/M00 A2995 RMK A01 T00801002  RH  056%=      5-min Rain = 0
KLO1 111446Z 01017G23KT 08/M00 A2995 RMK A01 T00801002  RH  056%=      5-min Rain = 0
KLO1 111447Z 01020KT 08/M00 A2995 RMK A01 T00791003  RH  056%=      5-min Rain = 0
KLO1 111448Z 01017KT 08/M01 A2995 RMK A01 T00771005  RH  056%=      5-min Rain = 0
KLO1 111449Z 00018KT 08/M01 A2995 RMK A01 T00761005  RH  056%=      5-min Rain = 0
KLO1 111450Z 01018KT 08/M01 A2995 RMK A01 T00761006  RH  056%=      5-min Rain = 0
KLO1 111451Z 01018G23KT 08/M01 A2996 RMK A01 T00751006  RH  056%=      5-min Rain = 0
KLO1 111452Z 00017KT 08/M01 A2996 RMK A01 T00751006  RH  056%=      5-min Rain = 0
KLO1 111453Z 01015G22KT 08/M01 A2996 RMK A01 T00751006  RH  057%=      5-min Rain = 0
KLO1 111454Z 36018KT 08/M01 A2996 RMK A01 T00751006  RH  057%=      5-min Rain = 0
KLO1 111455Z 01016KT 07/M01 A2996 RMK A01 T00741006  RH  057%=      5-min Rain = 0
KLO1 111456Z 01018KT 07/M01 A2996 RMK A01 T00741007  RH  057%=      5-min Rain = 0
KLO1 111457Z 01015KT 07/M01 A2996 RMK A01 T00731007  RH  057%=      5-min Rain = 0
KLO1 111458Z 01016KT 07/M01 A2996 RMK A01 T00731007  RH  057%=      5-min Rain = 0
KLO1 111459Z 01015KT 07/M01 A2996 RMK A01 T00731007  RH  057%=      5-min Rain = 0
KLO1 111500Z 01016KT 07/M01 A2997 RMK A01 T00731007  RH  057%=      5-min Rain = 0
KLO1 111501Z 01016KT 07/M01 A2997 RMK A01 T00731007  RH  057%=      5-min Rain = 0
KLO1 111502Z 00017KT 07/M01 A2997 RMK A01 T00721007  RH  057%=      5-min Rain = 0
KLO1 111503Z 01018KT 07/M01 A2997 RMK A01 T00721007  RH  057%=      5-min Rain = 0
KLO1 111504Z 01015KT 07/M01 A2997 RMK A01 T00721007  RH  057%=      5-min Rain = 0
KLO1 111505Z 00013KT 07/M01 A2997 RMK A01 T00721007  RH  057%=      5-min Rain = 0
KLO1 111506Z 01015KT 07/M01 A2997 RMK A01 T00721007  RH  057%=      5-min Rain = 0
KLO1 111507Z 00014KT 07/M01 A2997 RMK A01 T00721007  RH  057%=      5-min Rain = 0
KLO1 111508Z 01014KT 07/M01 A2997 RMK A01 T00721007  RH  057%=      5-min Rain = 0
KLO1 111509Z 00014KT 07/M01 A2997 RMK A01 T00721007  RH  057%=      5-min Rain = 0
KLO1 111510Z 00015KT 07/M01 A2998 RMK A01 T00721008  RH  057%=      5-min Rain = 0
KLO1 111511Z 00014KT 07/M01 A2998 RMK A01 T00721008  RH  057%=      5-min Rain = 0
KLO1 111512Z 00016KT 07/M01 A2998 RMK A01 T00721008  RH  057%=      5-min Rain = 0
KLO1 111513Z 00019KT 07/M01 A2998 RMK A01 T00721009  RH  056%=      5-min Rain = 0
KLO1 111514Z 00017KT 07/M01 A2998 RMK A01 T00721009  RH  056%=      5-min Rain = 0
KLO1 111515Z 01016KT 07/M01 A2998 RMK A01 T00721009  RH  056%=      5-min Rain = 0
KLO1 111516Z 00015G22KT 07/M01 A2999 RMK A01 T00721010  RH  056%=      5-min Rain = 0
KLO1 111517Z 36018KT 07/M01 A2999 RMK A01 T00721010  RH  056%=      5-min Rain = 0
KLO1 111518Z 00017G22KT 07/M01 A2999 RMK A01 T00721010  RH  056%=      5-min Rain = 0
KLO1 111519Z 00016KT 07/M01 A2999 RMK A01 T00721010  RH  056%=      5-min Rain = 0
KLO1 111520Z 35015G21KT 07/M01 A2999 RMK A01 T00721010  RH  056%=      5-min Rain = 0
KLO1 111521Z 36015G20KT 07/M01 A2999 RMK A01 T00721010  RH  056%=      5-min Rain = 0
KLO1 111522Z 00015KT 07/M01 A30 RMK A01 T00721010  RH  056%=      5-min Rain = 0
KLO1 111523Z 00014G19KT 07/M01 A30 RMK A01 T00721010  RH  056%=      5-min Rain = 0
KLO1 111524Z 36014KT 07/M01 A30 RMK A01 T00721011  RH  056%=      5-min Rain = 0
KLO1 111525Z 36012KT 07/M01 A30 RMK A01 T00721010  RH  056%=      5-min Rain = 0
KLO1 111526Z 36014G21KT 07/M01 A30 RMK A01 T00731010  RH  056%=      5-min Rain = 0
KLO1 111527Z 01018KT 07/M01 A30 RMK A01 T00731010  RH  055%=      5-min Rain = 0
KLO1 111528Z 36016KT 07/M01 A30 RMK A01 T00731011  RH  055%=      5-min Rain = 0
KLO1 111529Z 00017KT 07/M01 A30 RMK A01 T00731010  RH  056%=      5-min Rain = 0
KLO1 111530Z 01015KT 07/M01 A3001 RMK A01 T00731011  RH  055%=      5-min Rain = 0
KLO1 111531Z 00015KT 07/M01 A3001 RMK A01 T00731012  RH  055%=      5-min Rain = 0
KLO1 111532Z 00013KT 07/M01 A3001 RMK A01 T00731013  RH  055%=      5-min Rain = 0
KLO1 111533Z 01015KT 07/M01 A3001 RMK A01 T00721013  RH  054%=      5-min Rain = 0
KLO1 111534Z 36013KT 07/M01 A3001 RMK A01 T00721014  RH  054%=      5-min Rain = 0
KLO1 111535Z 00014KT 07/M01 A3001 RMK A01 T00721014  RH  054%=      5-min Rain = 0
KLO1 111536Z 01012KT 07/M01 A3001 RMK A01 T00731014  RH  054%=      5-min Rain = 0
KLO1 111537Z 00015KT 07/M01 A3002 RMK A01 T00731014  RH  054%=      5-min Rain = 0
KLO1 111538Z 00017KT 07/M01 A3002 RMK A01 T00731014  RH  054%=      5-min Rain = 0
KLO1 111539Z 00016KT 07/M01 A3002 RMK A01 T00721014  RH  054%=      5-min Rain = 0
KLO1 111540Z 00017G22KT 07/M01 A3002 RMK A01 T00721014  RH  054%=      5-min Rain = 0
KLO1 111541Z 35014KT 07/M01 A3003 RMK A01 T00711014  RH  055%=      5-min Rain = 0
KLO1 111542Z 34016KT 07/M01 A3003 RMK A01 T00711014  RH  055%=      5-min Rain = 0
KLO1 111543Z 34019G25KT 07/M02 A3003 RMK A01 T00721015  RH  054%=      5-min Rain = 0
KLO1 111544Z 34022KT 07/M02 A3003 RMK A01 T00721019  RH  052%=      5-min Rain = 0
KLO1 111545Z 33021KT 07/M02 A3003 RMK A01 T00701023  RH  051%=      5-min Rain = 0
KLO1 111546Z 34021KT 07/M02 A3003 RMK A01 T00701024  RH  051%=      5-min Rain = 0
KLO1 111547Z 34020G26KT 07/M03 A3003 RMK A01 T00691025  RH  051%=      5-min Rain = 0
KLO1 111548Z 35019G26KT 07/M03 A3004 RMK A01 T00691025  RH  051%=      5-min Rain = 0
KLO1 111549Z 35021KT 07/M03 A3004 RMK A01 T00681027  RH  051%=      5-min Rain = 0
KLO1 111550Z 34021KT 07/M03 A3004 RMK A01 T00671029  RH  050%=      5-min Rain = 0
KLO1 111551Z 34023KT 07/M03 A3004 RMK A01 T00671028  RH  051%=      5-min Rain = 0
KLO1 111552Z 35020G25KT 07/M03 A3004 RMK A01 T00671028  RH  051%=      5-min Rain = 0
KLO1 111553Z 35019G24KT 07/M03 A3004 RMK A01 T00681028  RH  050%=      5-min Rain = 0
KLO1 111554Z 34018KT 07/M03 A3004 RMK A01 T00681028  RH  050%=      5-min Rain = 0
KLO1 111555Z 35020G26KT 07/M03 A3004 RMK A01 T00691027  RH  050%=      5-min Rain = 0
KLO1 111556Z 36019G24KT 07/M03 A3005 RMK A01 T00691028  RH  050%=      5-min Rain = 0
KLO1 111557Z 36020KT 07/M03 A3005 RMK A01 T00691027  RH  050%=      5-min Rain = 0
KLO1 111558Z 00021G26KT 07/M03 A3005 RMK A01 T00691027  RH  051%=      5-min Rain = 0
KLO1 111559Z 00018KT 07/M03 A3005 RMK A01 T00681027  RH  051%=      5-min Rain = 0
KLO1 111600Z 36016KT 07/M03 A3005 RMK A01 T00681027  RH  051%=      5-min Rain = 0
KLO1 111601Z 35017G25KT 07/M03 A3005 RMK A01 T00681027  RH  051%=      5-min Rain = 0
KLO1 111602Z 34019KT 07/M03 A3005 RMK A01 T00691028  RH  050%=      5-min Rain = 0
KLO1 111603Z 35018G23KT 07/M03 A3005 RMK A01 T00681030  RH  050%=      5-min Rain = 0
KLO1 111604Z 35016G21KT 07/M03 A3006 RMK A01 T00681030  RH  050%=      5-min Rain = 0
KLO1 111605Z 35015G20KT 07/M03 A3006 RMK A01 T00671030  RH  050%=      5-min Rain = 0
KLO1 111606Z 35017KT 07/M03 A3006 RMK A01 T00671030  RH  050%=      5-min Rain = 0
KLO1 111607Z 34016KT 07/M03 A3006 RMK A01 T00671030  RH  050%=      5-min Rain = 0
KLO1 111608Z 00013G22KT 07/M03 A3006 RMK A01 T00671029  RH  050%=      5-min Rain = 0
KLO1 111609Z 35017KT 07/M03 A3006 RMK A01 T00681029  RH  050%=      5-min Rain = 0
KLO1 111610Z 36017KT 07/M03 A3006 RMK A01 T00691030  RH  049%=      5-min Rain = 0
KLO1 111611Z 35014G23KT 07/M03 A3007 RMK A01 T00681031  RH  049%=      5-min Rain = 0
KLO1 111612Z 34019G26KT 07/M03 A3007 RMK A01 T00681031  RH  049%=      5-min Rain = 0
KLO1 111613Z 35015G20KT 07/M03 A3007 RMK A01 T00681031  RH  049%=      5-min Rain = 0
KLO1 111614Z 35017G23KT 07/M03 A3007 RMK A01 T00681032  RH  049%=      5-min Rain = 0
KLO1 111615Z 35015G21KT 07/M03 A3007 RMK A01 T00681032  RH  049%=      5-min Rain = 0
KLO1 111616Z 35013KT 07/M03 A3007 RMK A01 T00681031  RH  049%=      5-min Rain = 0
KLO1 111617Z 35013KT 07/M03 A3007 RMK A01 T00701031  RH  049%=      5-min Rain = 0
KLO1 111618Z 35016KT 07/M03 A3007 RMK A01 T00701031  RH  049%=      5-min Rain = 0
KLO1 111619Z 35018G23KT 07/M03 A3007 RMK A01 T00691032  RH  049%=      5-min Rain = 0
KLO1 111620Z 36014KT 07/M03 A3007 RMK A01 T00681032  RH  049%=      5-min Rain = 0
KLO1 111621Z 35016KT 07/M03 A3007 RMK A01 T00681031  RH  049%=      5-min Rain = 0
KLO1 111622Z 35017KT 07/M03 A3008 RMK A01 T00681031  RH  049%=      5-min Rain = 0
KLO1 111623Z 35015G20KT 07/M03 A3008 RMK A01 T00681032  RH  049%=      5-min Rain = 0
KLO1 111624Z 34016G22KT 07/M03 A3008 RMK A01 T00681031  RH  049%=      5-min Rain = 0
KLO1 111625Z 34016KT 07/M03 A3008 RMK A01 T00691031  RH  049%=      5-min Rain = 0
KLO1 111626Z 35016G21KT 07/M03 A3008 RMK A01 T00691030  RH  049%=      5-min Rain = 0
KLO1 111627Z 35018KT 07/M03 A3008 RMK A01 T00701030  RH  049%=      5-min Rain = 0
KLO1 111628Z 00016KT 07/M03 A3008 RMK A01 T00701030  RH  049%=      5-min Rain = 0
KLO1 111629Z 34016KT 07/M03 A3008 RMK A01 T00701029  RH  049%=      5-min Rain = 0
KLO1 111630Z 34020KT 07/M03 A3008 RMK A01 T00701029  RH  049%=      5-min Rain = 0
KLO1 111631Z 34020G25KT 07/M03 A3008 RMK A01 T00711029  RH  049%=      5-min Rain = 0
KLO1 111632Z 33022G27KT 07/M03 A3008 RMK A01 T00711031  RH  048%=      5-min Rain = 0
KLO1 111633Z 34019G26KT 07/M03 A3008 RMK A01 T00711031  RH  048%=      5-min Rain = 0
KLO1 111634Z 34019G24KT 07/M04 A3009 RMK A01 T00731035  RH  046%=      5-min Rain = 0
KLO1 111635Z 34020G25KT 07/M04 A3009 RMK A01 T00721042  RH  044%=      5-min Rain = 0
KLO1 111636Z 34024KT 07/M05 A3009 RMK A01 T00701046  RH  043%=      5-min Rain = 0
KLO1 111637Z 33022G28KT 07/M05 A3009 RMK A01 T00681049  RH  043%=      5-min Rain = 0
KLO1 111638Z 34023KT 07/M05 A3009 RMK A01 T00661050  RH  043%=      5-min Rain = 0
KLO1 111639Z 34018KT 07/M05 A301 RMK A01 T00651050  RH  044%=      5-min Rain = 0
KLO1 111640Z 34025G30KT 07/M05 A301 RMK A01 T00661050  RH  044%=      5-min Rain = 0
KLO1 111641Z 33023KT 07/M05 A301 RMK A01 T00651050  RH  043%=      5-min Rain = 0
KLO1 111642Z 34023KT 07/M05 A301 RMK A01 T00651051  RH  043%=      5-min Rain = 0
KLO1 111643Z 34019G25KT 06/M05 A301 RMK A01 T00641052  RH  043%=      5-min Rain = 0
KLO1 111644Z 35017G23KT 06/M05 A3011 RMK A01 T00641051  RH  044%=      5-min Rain = 0
KLO1 111645Z 34016KT 07/M05 A3011 RMK A01 T00651051  RH  044%=      5-min Rain = 0
KLO1 111646Z 34017G22KT 07/M05 A3011 RMK A01 T00651051  RH  043%=      5-min Rain = 0
KLO1 111647Z 33021G27KT 07/M05 A3011 RMK A01 T00661051  RH  043%=      5-min Rain = 0
KLO1 111648Z 33025KT 07/M05 A3011 RMK A01 T00661054  RH  042%=      5-min Rain = 0
KLO1 111649Z 34022G30KT 06/M06 A3011 RMK A01 T00641056  RH  042%=      5-min Rain = 0
KLO1 111650Z 35025G30KT 06/M06 A3011 RMK A01 T00631056  RH  042%=      5-min Rain = 0
KLO1 111651Z 34024G29KT 06/M06 A3011 RMK A01 T00621056  RH  043%=      5-min Rain = 0
KLO1 111652Z 34023KT 06/M06 A3011 RMK A01 T00621057  RH  042%=      5-min Rain = 0
KLO1 111653Z 34026KT 06/M06 A3011 RMK A01 T00621058  RH  042%=      5-min Rain = 0
KLO1 111654Z 35022G27KT 06/M06 A3011 RMK A01 T00611060  RH  042%=      5-min Rain = 0
KLO1 111655Z 35020KT 06/M06 A3012 RMK A01 T00611061  RH  041%=      5-min Rain = 0
KLO1 111656Z 35023G28KT 06/M06 A3012 RMK A01 T00621060  RH  041%=      5-min Rain = 0
KLO1 111657Z 34023G28KT 06/M06 A3012 RMK A01 T00621061  RH  041%=      5-min Rain = 0
KLO1 111658Z 34023KT 06/M06 A3011 RMK A01 T00631061  RH  041%=      5-min Rain = 0
KLO1 111659Z 34023G28KT 06/M06 A3012 RMK A01 T00641060  RH  041%=      5-min Rain = 0
KLO1 111700Z 35024KT 06/M06 A3012 RMK A01 T00641061  RH  040%=      5-min Rain = 0
KLO1 111701Z 34023G28KT 06/M06 A3012 RMK A01 T00641062  RH  040%=      5-min Rain = 0
KLO1 111702Z 34021G27KT 06/M06 A3011 RMK A01 T00641062  RH  040%=      5-min Rain = 0
KLO1 111703Z 34024KT 06/M06 A3011 RMK A01 T00641062  RH  040%=      5-min Rain = 0
KLO1 111704Z 34023G28KT 07/M06 A3011 RMK A01 T00651063  RH  040%=      5-min Rain = 0
KLO1 111705Z 35023G28KT 07/M06 A3011 RMK A01 T00651063  RH  040%=      5-min Rain = 0
KLO1 111706Z 34026KT 07/M06 A3011 RMK A01 T00651064  RH  039%=      5-min Rain = 0
KLO1 111707Z 35022KT 07/M07 A3012 RMK A01 T00651065  RH  039%=      5-min Rain = 0
KLO1 111708Z 35017G22KT 07/M06 A3012 RMK A01 T00651064  RH  039%=      5-min Rain = 0
KLO1 111709Z 36023KT 07/M06 A3012 RMK A01 T00661063  RH  039%=      5-min Rain = 0
KLO1 111710Z 35022KT 07/M06 A3012 RMK A01 T00661064  RH  039%=      5-min Rain = 0
KLO1 111711Z 36021G28KT 07/M06 A3012 RMK A01 T00661064  RH  039%=      5-min Rain = 0
KLO1 111712Z 36018G24KT 07/M06 A3012 RMK A01 T00671063  RH  039%=      5-min Rain = 0
KLO1 111713Z 35018G24KT 07/M06 A3012 RMK A01 T00671063  RH  039%=      5-min Rain = 0
KLO1 111714Z 00020G25KT 07/M06 A3012 RMK A01 T00691062  RH  039%=      5-min Rain = 0
KLO1 111715Z 36019KT 07/M06 A3012 RMK A01 T00691061  RH  039%=      5-min Rain = 0
KLO1 111716Z 36017KT 07/M06 A3012 RMK A01 T00701060  RH  039%=      5-min Rain = 0
KLO1 111717Z 35015KT 07/M06 A3012 RMK A01 T00711059  RH  039%=      5-min Rain = 0
KLO1 111718Z 35015KT 07/M06 A3012 RMK A01 T00721059  RH  039%=      5-min Rain = 0
KLO1 111719Z 34019G26KT 07/M06 A3012 RMK A01 T00721058  RH  039%=      5-min Rain = 0
KLO1 111720Z 33024KT 07/M06 A3012 RMK A01 T00711057  RH  040%=      5-min Rain = 0
KLO1 111721Z 33022KT 07/M06 A3012 RMK A01 T00701057  RH  040%=      5-min Rain = 0
KLO1 111722Z 33023KT 07/M06 A3012 RMK A01 T00701058  RH  040%=      5-min Rain = 0
KLO1 111723Z 33020KT 07/M06 A3012 RMK A01 T00681058  RH  040%=      5-min Rain = 0
KLO1 111724Z 32021KT 07/M06 A3012 RMK A01 T00691057  RH  040%=      5-min Rain = 0
KLO1 111725Z 32024KT 07/M06 A3012 RMK A01 T00721056  RH  040%=      5-min Rain = 0
KLO1 111726Z 32022KT 07/M06 A3012 RMK A01 T00731057  RH  039%=      5-min Rain = 0
KLO1 111727Z 33023KT 07/M06 A3012 RMK A01 T00731057  RH  039%=      5-min Rain = 0
KLO1 111728Z 32022KT 07/M06 A3012 RMK A01 T00741058  RH  038%=      5-min Rain = 0
KLO1 111729Z 32022KT 07/M06 A3012 RMK A01 T00741059  RH  038%=      5-min Rain = 0
KLO1 111730Z 32019KT 07/M06 A3012 RMK A01 T00741059  RH  038%=      5-min Rain = 0
KLO1 111731Z 33021G28KT 08/M06 A3012 RMK A01 T00761059  RH  038%=      5-min Rain = 0
KLO1 111732Z 33022KT 08/M06 A3012 RMK A01 T00771061  RH  037%=      5-min Rain = 0
KLO1 111733Z 34020KT 08/M06 A3012 RMK A01 T00751063  RH  037%=      5-min Rain = 0
KLO1 111734Z 33020KT 08/M06 A3012 RMK A01 T00761062  RH  037%=      5-min Rain = 0
KLO1 111735Z 34023G29KT 08/M06 A3012 RMK A01 T00771063  RH  036%=      5-min Rain = 0
KLO1 111736Z 35021G27KT 08/M07 A3013 RMK A01 T00751066  RH  036%=      5-min Rain = 0
KLO1 111737Z 34020G25KT 07/M07 A3013 RMK A01 T00731067  RH  036%=      5-min Rain = 0
KLO1 111738Z 34017KT 07/M07 A3013 RMK A01 T00721068  RH  036%=      5-min Rain = 0
KLO1 111739Z 34025KT 07/M07 A3013 RMK A01 T00741066  RH  036%=      5-min Rain = 0
KLO1 111740Z 33025KT 07/M07 A3013 RMK A01 T00731069  RH  036%=      5-min Rain = 0
KLO1 111741Z 34021KT 07/M07 A3013 RMK A01 T00731068  RH  036%=      5-min Rain = 0
KLO1 111742Z 34021KT 08/M07 A3013 RMK A01 T00761065  RH  036%=      5-min Rain = 0
KLO1 111743Z 34024G29KT 08/M07 A3013 RMK A01 T00781067  RH  035%=      5-min Rain = 0
KLO1 111744Z 33024G29KT 08/M07 A3013 RMK A01 T00761070  RH  035%=      5-min Rain = 0
KLO1 111745Z 34022KT 08/M07 A3013 RMK A01 T00751070  RH  035%=      5-min Rain = 0
KLO1 111746Z 35020G25KT 08/M07 A3013 RMK A01 T00761069  RH  035%=      5-min Rain = 0
KLO1 111747Z 34025KT 08/M07 A3013 RMK A01 T00761072  RH  034%=      5-min Rain = 0
KLO1 111748Z 34027KT 07/M07 A3014 RMK A01 T00721074  RH  035%=      5-min Rain = 0
KLO1 111749Z 34023KT 07/M07 A3014 RMK A01 T00701074  RH  035%=      5-min Rain = 0
KLO1 111750Z 34023KT 07/M07 A3014 RMK A01 T00691073  RH  035%=      5-min Rain = 0
KLO1 111751Z 35022KT 07/M07 A3014 RMK A01 T00701073  RH  035%=      5-min Rain = 0
KLO1 111752Z 35022KT 07/M07 A3014 RMK A01 T00701073  RH  035%=      5-min Rain = 0
KLO1 111753Z 34024KT 07/M07 A3014 RMK A01 T00701072  RH  036%=      5-min Rain = 0
KLO1 111754Z 34024KT 07/M07 A3014 RMK A01 T00711072  RH  035%=      5-min Rain = 0
KLO1 111755Z 34023KT 07/M07 A3014 RMK A01 T00711073  RH  035%=      5-min Rain = 0
KLO1 111756Z 34024KT 07/M07 A3014 RMK A01 T00711072  RH  035%=      5-min Rain = 0
KLO1 111757Z 35021G26KT 07/M07 A3014 RMK A01 T00701074  RH  035%=      5-min Rain = 0
KLO1 111758Z 35017G25KT 07/M07 A3014 RMK A01 T00691074  RH  035%=      5-min Rain = 0
KLO1 111759Z 34018G26KT 07/M07 A3014 RMK A01 T00701071  RH  036%=      5-min Rain = 0
KLO1 111800Z 34020G25KT 07/M07 A3014 RMK A01 T00721072  RH  035%=      5-min Rain = 0
KLO1 111801Z 34023KT 07/M07 A3014 RMK A01 T00721073  RH  035%=      5-min Rain = 0
KLO1 111802Z 34021KT 07/M07 A3014 RMK A01 T00711074  RH  035%=      5-min Rain = 0
KLO1 111803Z 34024KT 07/M07 A3014 RMK A01 T00711074  RH  035%=      5-min Rain = 0
KLO1 111804Z 34023G28KT 07/M07 A3014 RMK A01 T00721074  RH  035%=      5-min Rain = 0
KLO1 111805Z 34020G25KT 07/M07 A3014 RMK A01 T00721073  RH  035%=      5-min Rain = 0
KLO1 111806Z 34023G28KT 07/M07 A3014 RMK A01 T00731073  RH  035%=      5-min Rain = 0
KLO1 111807Z 34024KT 07/M07 A3014 RMK A01 T00741073  RH  034%=      5-min Rain = 0
KLO1 111808Z 33022G27KT 07/M07 A3014 RMK A01 T00731074  RH  034%=      5-min Rain = 0
KLO1 111809Z 33023KT 08/M07 A3014 RMK A01 T00751071  RH  035%=      5-min Rain = 0
KLO1 111810Z 34023KT 08/M07 A3014 RMK A01 T00771072  RH  034%=      5-min Rain = 0
KLO1 111811Z 33025KT 08/M07 A3015 RMK A01 T00791071  RH  034%=      5-min Rain = 0
KLO1 111812Z 34024KT 08/M07 A3014 RMK A01 T00801072  RH  033%=      5-min Rain = 0
KLO1 111813Z 35021KT 08/M07 A3015 RMK A01 T00791073  RH  033%=      5-min Rain = 0
KLO1 111814Z 34021KT 08/M07 A3015 RMK A01 T00791073  RH  033%=      5-min Rain = 0
KLO1 111815Z 34020KT 08/M07 A3015 RMK A01 T00781072  RH  034%=      5-min Rain = 0
KLO1 111816Z 35019G24KT 08/M07 A3015 RMK A01 T00781073  RH  034%=      5-min Rain = 0
KLO1 111817Z 35020G25KT 08/M07 A3015 RMK A01 T00781073  RH  034%=      5-min Rain = 0
KLO1 111818Z 35019KT 08/M07 A3015 RMK A01 T00781072  RH  034%=      5-min Rain = 0
KLO1 111819Z 35021G26KT 08/M07 A3015 RMK A01 T00791072  RH  034%=      5-min Rain = 0
KLO1 111820Z 35019G26KT 08/M07 A3015 RMK A01 T00791072  RH  033%=      5-min Rain = 0
KLO1 111821Z 34019G24KT 08/M07 A3015 RMK A01 T00791071  RH  034%=      5-min Rain = 0
KLO1 111822Z 34019KT 08/M07 A3015 RMK A01 T00821068  RH  034%=      5-min Rain = 0
KLO1 111823Z 34019KT 09/M07 A3015 RMK A01 T00851069  RH  033%=      5-min Rain = 0
KLO1 111824Z 35022G29KT 08/M07 A3015 RMK A01 T00841071  RH  033%=      5-min Rain = 0
KLO1 111825Z 35020G28KT 08/M07 A3015 RMK A01 T00831072  RH  033%=      5-min Rain = 0
KLO1 111826Z 34024G29KT 08/M07 A3014 RMK A01 T00831073  RH  032%=      5-min Rain = 0
KLO1 111827Z 35023G28KT 08/M07 A3015 RMK A01 T00831073  RH  032%=      5-min Rain = 0
KLO1 111828Z 34022G27KT 08/M07 A3015 RMK A01 T00821074  RH  032%=      5-min Rain = 0
KLO1 111829Z 34023KT 08/M07 A3014 RMK A01 T00821074  RH  032%=      5-min Rain = 0
KLO1 111830Z 35018G23KT 08/M07 A3014 RMK A01 T00821074  RH  032%=      5-min Rain = 0
KLO1 111831Z 34023KT 08/M07 A3014 RMK A01 T00821074  RH  032%=      5-min Rain = 0
KLO1 111832Z 33025KT 08/M07 A3014 RMK A01 T00831074  RH  032%=      5-min Rain = 0
KLO1 111833Z 33023KT 08/M08 A3014 RMK A01 T00831075  RH  032%=      5-min Rain = 0
KLO1 111834Z 34021G26KT 09/M07 A3014 RMK A01 T00851073  RH  032%=      5-min Rain = 0
KLO1 111835Z 36017G23KT 09/M07 A3014 RMK A01 T00861074  RH  032%=      5-min Rain = 0
KLO1 111836Z 34021G27KT 09/M07 A3014 RMK A01 T00861073  RH  032%=      5-min Rain = 0
KLO1 111837Z 34025KT 09/M08 A3014 RMK A01 T00861075  RH  031%=      5-min Rain = 0
KLO1 111838Z 34024KT 09/M08 A3014 RMK A01 T00861076  RH  031%=      5-min Rain = 0
KLO1 111839Z 35021KT 09/M08 A3014 RMK A01 T00851076  RH  031%=      5-min Rain = 0
KLO1 111840Z 34022KT 09/M08 A3015 RMK A01 T00851075  RH  031%=      5-min Rain = 0
KLO1 111841Z 34019G24KT 09/M07 A3015 RMK A01 T00861074  RH  031%=      5-min Rain = 0
KLO1 111842Z 34025KT 09/M08 A3015 RMK A01 T00871075  RH  031%=      5-min Rain = 0
KLO1 111843Z 35020G25KT 09/M08 A3015 RMK A01 T00861076  RH  031%=      5-min Rain = 0
KLO1 111844Z 00018KT 09/M08 A3015 RMK A01 T00851076  RH  031%=      5-min Rain = 0
KLO1 111845Z 35016G22KT 09/M08 A3014 RMK A01 T00851075  RH  031%=      5-min Rain = 0
KLO1 111846Z 35017KT 09/M08 A3014 RMK A01 T00851075  RH  031%=      5-min Rain = 0
KLO1 111847Z 35017G22KT 09/M07 A3014 RMK A01 T00851074  RH  032%=      5-min Rain = 0
KLO1 111848Z 33019KT 09/M07 A3014 RMK A01 T00871073  RH  031%=      5-min Rain = 0
KLO1 111849Z 32018KT 09/M07 A3014 RMK A01 T00901072  RH  031%=      5-min Rain = 0
KLO1 111850Z 34019KT 09/M07 A3014 RMK A01 T00911073  RH  031%=      5-min Rain = 0
KLO1 111851Z 34022KT 09/M07 A3014 RMK A01 T00921073  RH  030%=      5-min Rain = 0
KLO1 111852Z 34023G28KT 09/M08 A3014 RMK A01 T00911076  RH  030%=      5-min Rain = 0
KLO1 111853Z 34020KT 09/M08 A3014 RMK A01 T00881076  RH  030%=      5-min Rain = 0
KLO1 111854Z 34017KT 09/M08 A3014 RMK A01 T00881075  RH  031%=      5-min Rain = 0
KLO1 111855Z 35022G28KT 09/M08 A3014 RMK A01 T00891075  RH  031%=      5-min Rain = 0
KLO1 111856Z 34020G25KT 09/M08 A3014 RMK A01 T00901076  RH  030%=      5-min Rain = 0
KLO1 111857Z 34020KT 09/M08 A3014 RMK A01 T00901076  RH  030%=      5-min Rain = 0
KLO1 111858Z 36017KT 09/M08 A3014 RMK A01 T00911076  RH  030%=      5-min Rain = 0
KLO1 111859Z 36015KT 09/M08 A3014 RMK A01 T00911077  RH  030%=      5-min Rain = 0
KLO1 111900Z 34016KT 09/M08 A3014 RMK A01 T00901077  RH  030%=      5-min Rain = 0
KLO1 111901Z 33022KT 09/M08 A3014 RMK A01 T00911076  RH  030%=      5-min Rain = 0
KLO1 111902Z 33017KT 09/M08 A3014 RMK A01 T00931076  RH  030%=      5-min Rain = 0
KLO1 111903Z 33018KT 10/M08 A3014 RMK A01 T00971075  RH  029%=      5-min Rain = 0
KLO1 111904Z 34018KT 10/M08 A3014 RMK A01 T00961077  RH  029%=      5-min Rain = 0
KLO1 111905Z 34022KT 10/M08 A3014 RMK A01 T00951077  RH  029%=      5-min Rain = 0
KLO1 111906Z 32023KT 09/M08 A3014 RMK A01 T00931079  RH  029%=      5-min Rain = 0
KLO1 111907Z 33020KT 09/M08 A3014 RMK A01 T00921079  RH  029%=      5-min Rain = 0
KLO1 111908Z 33025KT 09/M08 A3014 RMK A01 T00921078  RH  029%=      5-min Rain = 0
KLO1 111909Z 34025KT 09/M08 A3014 RMK A01 T00921080  RH  029%=      5-min Rain = 0
KLO1 111910Z 34022KT 09/M08 A3014 RMK A01 T00911080  RH  029%=      5-min Rain = 0
KLO1 111911Z 34024KT 09/M08 A3014 RMK A01 T00911081  RH  029%=      5-min Rain = 0
KLO1 111912Z 33020G25KT 09/M08 A3014 RMK A01 T00911081  RH  029%=      5-min Rain = 0
KLO1 111913Z 33023KT 09/M08 A3014 RMK A01 T00921080  RH  029%=      5-min Rain = 0
KLO1 111914Z 33018KT 09/M08 A3014 RMK A01 T00921081  RH  029%=      5-min Rain = 0
KLO1 111915Z 34018G23KT 09/M08 A3014 RMK A01 T00931080  RH  029%=      5-min Rain = 0
KLO1 111916Z 35018KT 09/M08 A3014 RMK A01 T00941081  RH  028%=      5-min Rain = 0
KLO1 111917Z 34021KT 09/M08 A3014 RMK A01 T00931081  RH  028%=      5-min Rain = 0
KLO1 111918Z 34019KT 09/M08 A3014 RMK A01 T00931082  RH  028%=      5-min Rain = 0
KLO1 111919Z 34018G24KT 09/M08 A3014 RMK A01 T00911083  RH  028%=      5-min Rain = 0
KLO1 111920Z 34021G28KT 09/M08 A3014 RMK A01 T00921081  RH  029%=      5-min Rain = 0
KLO1 111921Z 35018G24KT 09/M08 A3014 RMK A01 T00931082  RH  028%=      5-min Rain = 0
KLO1 111922Z 34023G29KT 09/M08 A3014 RMK A01 T00931082  RH  028%=      5-min Rain = 0
KLO1 111923Z 34024KT 09/M08 A3014 RMK A01 T00931084  RH  028%=      5-min Rain = 0
KLO1 111924Z 34018G23KT 09/M08 A3014 RMK A01 T00921083  RH  028%=      5-min Rain = 0
KLO1 111925Z 34019G26KT 10/M08 A3014 RMK A01 T00951080  RH  028%=      5-min Rain = 0
KLO1 111926Z 35020G26KT 10/M08 A3014 RMK A01 T00961083  RH  027%=      5-min Rain = 0
KLO1 111927Z 36019G24KT 10/M08 A3014 RMK A01 T00951084  RH  027%=      5-min Rain = 0
KLO1 111928Z 01021KT 09/M08 A3014 RMK A01 T00941084  RH  028%=      5-min Rain = 0
KLO1 111929Z 35019G25KT 09/M08 A3014 RMK A01 T00931084  RH  028%=      5-min Rain = 0
KLO1 111930Z 34021KT 09/M08 A3014 RMK A01 T00931083  RH  028%=      5-min Rain = 0
KLO1 111931Z 33023KT 10/M08 A3014 RMK A01 T00961084  RH  027%=      5-min Rain = 0
KLO1 111932Z 34021G26KT 10/M08 A3014 RMK A01 T00981084  RH  027%=      5-min Rain = 0
KLO1 111933Z 33023G28KT 10/M09 A3014 RMK A01 T00991085  RH  026%=      5-min Rain = 0
KLO1 111934Z 33025G33KT 10/M09 A3014 RMK A01 T01001085  RH  026%=      5-min Rain = 0
KLO1 111935Z 34025KT 10/M09 A3015 RMK A01 T01011087  RH  026%=      5-min Rain = 0
KLO1 111936Z 34022G27KT 10/M09 A3015 RMK A01 T00981089  RH  026%=      5-min Rain = 0
KLO1 111937Z 35019G24KT 10/M09 A3015 RMK A01 T00971088  RH  026%=      5-min Rain = 0
KLO1 111938Z 34020G28KT 10/M09 A3015 RMK A01 T00991086  RH  026%=      5-min Rain = 0
KLO1 111939Z 35022G28KT 10/M09 A3014 RMK A01 T00991088  RH  026%=      5-min Rain = 0
KLO1 111940Z 00019KT 10/M09 A3015 RMK A01 T00991088  RH  026%=      5-min Rain = 0
KLO1 111941Z 34021G26KT 10/M09 A3015 RMK A01 T00991089  RH  026%=      5-min Rain = 0
KLO1 111942Z 33023G28KT 10/M09 A3014 RMK A01 T01001088  RH  026%=      5-min Rain = 0
KLO1 111943Z 34024G29KT 10/M09 A3014 RMK A01 T01021088  RH  025%=      5-min Rain = 0
KLO1 111944Z 35017G25KT 10/M09 A3015 RMK A01 T01021089  RH  025%=      5-min Rain = 0
KLO1 111945Z 34021KT 10/M09 A3015 RMK A01 T01031089  RH  025%=      5-min Rain = 0
KLO1 111946Z 35016KT 10/M09 A3015 RMK A01 T01041089  RH  025%=      5-min Rain = 0
KLO1 111947Z 36017KT 11/M09 A3015 RMK A01 T01061088  RH  025%=      5-min Rain = 0
KLO1 111948Z 35018KT 11/M09 A3015 RMK A01 T01051089  RH  025%=      5-min Rain = 0
KLO1 111949Z 36017KT 10/M09 A3015 RMK A01 T01041089  RH  025%=      5-min Rain = 0
KLO1 111950Z 35016KT 10/M09 A3015 RMK A01 T01041089  RH  025%=      5-min Rain = 0
KLO1 111951Z 35018G23KT 10/M09 A3015 RMK A01 T01041091  RH  024%=      5-min Rain = 0
KLO1 111952Z 34018KT 10/M09 A3015 RMK A01 T01021091  RH  025%=      5-min Rain = 0
KLO1 111953Z 34025KT 10/M09 A3014 RMK A01 T01021091  RH  025%=      5-min Rain = 0
KLO1 111954Z 34022G27KT 10/M09 A3015 RMK A01 T01041091  RH  024%=      5-min Rain = 0
KLO1 111955Z 34024G31KT 11/M09 A3014 RMK A01 T01061092  RH  024%=      5-min Rain = 0
KLO1 111956Z 35025G30KT 11/M09 A3014 RMK A01 T01061094  RH  024%=      5-min Rain = 0
KLO1 111957Z 35020G28KT 10/M10 A3015 RMK A01 T01031096  RH  024%=      5-min Rain = 0
KLO1 111958Z 35019G24KT 10/M10 A3015 RMK A01 T01011096  RH  024%=      5-min Rain = 0
KLO1 111959Z 35016G21KT 10/M10 A3015 RMK A01 T01011095  RH  024%=      5-min Rain = 0
KLO1 112000Z 00017G23KT 10/M09 A3015 RMK A01 T01031093  RH  024%=      5-min Rain = 0
KLO1 112001Z 00017G22KT 10/M09 A3015 RMK A01 T01031094  RH  024%=      5-min Rain = 0
KLO1 112002Z 34020G27KT 11/M09 A3015 RMK A01 T01051092  RH  024%=      5-min Rain = 0
KLO1 112003Z 34019G24KT 11/M09 A3014 RMK A01 T01051093  RH  024%=      5-min Rain = 0
KLO1 112004Z 36016G21KT 10/M09 A3015 RMK A01 T01041092  RH  024%=      5-min Rain = 0
KLO1 112005Z 35017G22KT 10/M09 A3015 RMK A01 T01041092  RH  024%=      5-min Rain = 0
KLO1 112006Z 35015G22KT 11/M09 A3015 RMK A01 T01051091  RH  024%=      5-min Rain = 0
KLO1 112007Z 35019KT 11/M09 A3015 RMK A01 T01061090  RH  024%=      5-min Rain = 0
KLO1 112008Z 34020KT 11/M09 A3014 RMK A01 T01071091  RH  024%=      5-min Rain = 0
KLO1 112009Z 35018G23KT 11/M09 A3015 RMK A01 T01071090  RH  024%=      5-min Rain = 0
KLO1 112010Z 35017KT 11/M09 A3015 RMK A01 T01071090  RH  024%=      5-min Rain = 0
KLO1 112011Z 35013G18KT 11/M09 A3014 RMK A01 T01051092  RH  024%=      5-min Rain = 0
KLO1 112012Z 34017KT 10/M09 A3014 RMK A01 T01031090  RH  025%=      5-min Rain = 0
KLO1 112013Z 35013KT 10/M09 A3014 RMK A01 T01031088  RH  025%=      5-min Rain = 0
KLO1 112014Z 34012G18KT 10/M09 A3014 RMK A01 T01041087  RH  025%=      5-min Rain = 0
KLO1 112015Z 33020KT 11/M09 A3014 RMK A01 T01051087  RH  025%=      5-min Rain = 0
KLO1 112016Z 33020KT 11/M09 A3014 RMK A01 T01061087  RH  025%=      5-min Rain = 0
KLO1 112017Z 34016KT 11/M09 A3014 RMK A01 T01081087  RH  024%=      5-min Rain = 0
KLO1 112018Z 34022KT 11/M09 A3015 RMK A01 T01091088  RH  024%=      5-min Rain = 0
KLO1 112019Z 35016G25KT 11/M09 A3015 RMK A01 T01081092  RH  024%=      5-min Rain = 0
KLO1 112020Z 35012KT 11/M09 A3015 RMK A01 T01061092  RH  024%=      5-min Rain = 0
KLO1 112021Z 34017G23KT 11/M09 A3015 RMK A01 T01101090  RH  024%=      5-min Rain = 0
KLO1 112022Z 35021G26KT 11/M09 A3015 RMK A01 T01121093  RH  023%=      5-min Rain = 0
KLO1 112023Z 35020G27KT 11/M10 A3015 RMK A01 T01101096  RH  023%=      5-min Rain = 0
KLO1 112024Z 35019G24KT 11/M10 A3015 RMK A01 T01081096  RH  023%=      5-min Rain = 0
KLO1 112025Z 34017KT 11/M10 A3015 RMK A01 T01081095  RH  023%=      5-min Rain = 0
KLO1 112026Z 34020KT 11/M10 A3015 RMK A01 T01081095  RH  023%=      5-min Rain = 0
KLO1 112027Z 35021KT 11/M10 A3015 RMK A01 T01081096  RH  023%=      5-min Rain = 0
KLO1 112028Z 35020G27KT 11/M10 A3015 RMK A01 T01091097  RH  023%=      5-min Rain = 0
KLO1 112029Z 35019KT 11/M10 A3015 RMK A01 T01081097  RH  023%=      5-min Rain = 0
KLO1 112030Z 35017G24KT 11/M10 A3015 RMK A01 T01081096  RH  023%=      5-min Rain = 0
KLO1 112031Z 36018KT 11/M10 A3015 RMK A01 T01071096  RH  023%=      5-min Rain = 0
KLO1 112032Z 35017KT 11/M10 A3015 RMK A01 T01061097  RH  023%=      5-min Rain = 0
KLO1 112033Z 34023KT 11/M10 A3015 RMK A01 T01071097  RH  023%=      5-min Rain = 0
KLO1 112034Z 35020G27KT 11/M10 A3015 RMK A01 T01081100  RH  022%=      5-min Rain = 0
KLO1 112035Z 34025KT 11/M10 A3015 RMK A01 T01081101  RH  022%=      5-min Rain = 0
KLO1 112036Z 34020KT 11/M10 A3015 RMK A01 T01081104  RH  022%=      5-min Rain = 0
KLO1 112037Z 35021G27KT 11/M10 A3015 RMK A01 T01081104  RH  021%=      5-min Rain = 0
KLO1 112038Z 35018G23KT 11/M11 A3015 RMK A01 T01081105  RH  021%=      5-min Rain = 0
KLO1 112039Z 01017G22KT 11/M11 A3015 RMK A01 T01081106  RH  021%=      5-min Rain = 0
KLO1 112040Z 36017G24KT 11/M11 A3015 RMK A01 T01091105  RH  021%=      5-min Rain = 0
KLO1 112041Z 35019G25KT 11/M10 A3015 RMK A01 T01121104  RH  021%=      5-min Rain = 0
KLO1 112042Z 36021KT 11/M11 A3015 RMK A01 T01131107  RH  020%=      5-min Rain = 0
KLO1 112043Z 01020G25KT 11/M11 A3016 RMK A01 T01111108  RH  020%=      5-min Rain = 0
KLO1 112044Z 00019KT 11/M11 A3016 RMK A01 T01111107  RH  021%=      5-min Rain = 0
KLO1 112045Z 01021KT 11/M11 A3016 RMK A01 T01101106  RH  021%=      5-min Rain = 0
KLO1 112046Z 01020KT 11/M11 A3016 RMK A01 T01101105  RH  021%=      5-min Rain = 0
KLO1 112047Z 01021G26KT 11/M10 A3016 RMK A01 T01111104  RH  021%=      5-min Rain = 0
KLO1 112048Z 00019G24KT 11/M10 A3016 RMK A01 T01111104  RH  021%=      5-min Rain = 0
KLO1 112049Z 01019G26KT 11/M10 A3016 RMK A01 T01121103  RH  021%=      5-min Rain = 0
KLO1 112050Z 00022KT 11/M10 A3016 RMK A01 T01121103  RH  021%=      5-min Rain = 0
KLO1 112051Z 00017G23KT 11/M10 A3016 RMK A01 T01111103  RH  021%=      5-min Rain = 0
KLO1 112052Z 35016KT 11/M10 A3016 RMK A01 T01111102  RH  021%=      5-min Rain = 0
KLO1 112053Z 35018G24KT 11/M10 A3016 RMK A01 T01121102  RH  021%=      5-min Rain = 0
KLO1 112054Z 35015G20KT 11/M10 A3016 RMK A01 T01121102  RH  021%=      5-min Rain = 0
KLO1 112055Z 35015KT 11/M10 A3016 RMK A01 T01131100  RH  021%=      5-min Rain = 0
KLO1 112056Z 34016G21KT 12/M10 A3016 RMK A01 T01151098  RH  022%=      5-min Rain = 0
KLO1 112057Z 34018KT 12/M10 A3016 RMK A01 T01161098  RH  021%=      5-min Rain = 0
KLO1 112058Z 34020KT 11/M10 A3016 RMK A01 T01141100  RH  021%=      5-min Rain = 0
KLO1 112059Z 33020KT 12/M11 A3016 RMK A01 T01151108  RH  020%=      5-min Rain = 0
KLO1 112100Z 33020KT 12/M11 A3016 RMK A01 T01161114  RH  019%=      5-min Rain = 0
KLO1 112101Z 34019G24KT 11/M11 A3016 RMK A01 T01141114  RH  019%=      5-min Rain = 0
KLO1 112102Z 35020G25KT 12/M11 A3017 RMK A01 T01151112  RH  019%=      5-min Rain = 0
KLO1 112103Z 34024G29KT 12/M11 A3017 RMK A01 T01151112  RH  019%=      5-min Rain = 0
KLO1 112104Z 34022KT 11/M11 A3017 RMK A01 T01121114  RH  019%=      5-min Rain = 0
KLO1 112105Z 34022KT 11/M11 A3017 RMK A01 T01111114  RH  019%=      5-min Rain = 0
KLO1 112106Z 34024KT 11/M12 A3017 RMK A01 T01101115  RH  019%=      5-min Rain = 0
KLO1 112107Z 34020KT 11/M12 A3017 RMK A01 T01091117  RH  019%=      5-min Rain = 0
KLO1 112108Z 34022KT 11/M12 A3017 RMK A01 T01091117  RH  019%=      5-min Rain = 0
KLO1 112109Z 34021G28KT 11/M12 A3017 RMK A01 T01071119  RH  019%=      5-min Rain = 0
KLO1 112110Z 35022G27KT 11/M12 A3018 RMK A01 T01051120  RH  019%=      5-min Rain = 0
KLO1 112111Z 34018KT 10/M12 A3018 RMK A01 T01041118  RH  020%=      5-min Rain = 0
KLO1 112112Z 34019G26KT 11/M12 A3018 RMK A01 T01071115  RH  020%=      5-min Rain = 0
KLO1 112113Z 36020G25KT 11/M12 A3018 RMK A01 T01091116  RH  019%=      5-min Rain = 0
KLO1 112114Z 35018G24KT 11/M12 A3018 RMK A01 T01091115  RH  019%=      5-min Rain = 0
KLO1 112115Z 35018KT 11/M11 A3018 RMK A01 T01101114  RH  020%=      5-min Rain = 0
KLO1 112116Z 35016KT 11/M12 A3018 RMK A01 T01101115  RH  019%=      5-min Rain = 0
KLO1 112117Z 35019KT 11/M11 A3018 RMK A01 T01111114  RH  019%=      5-min Rain = 0
KLO1 112118Z 34019KT 11/M12 A3018 RMK A01 T01101115  RH  019%=      5-min Rain = 0
KLO1 112119Z 36016G23KT 11/M11 A3018 RMK A01 T01091114  RH  020%=      5-min Rain = 0
KLO1 112120Z 00017KT 11/M11 A3018 RMK A01 T01091113  RH  020%=      5-min Rain = 0
KLO1 112121Z 00019KT 11/M11 A3018 RMK A01 T01101112  RH  020%=      5-min Rain = 0
KLO1 112122Z 00018KT 11/M11 A3018 RMK A01 T01091112  RH  020%=      5-min Rain = 0
KLO1 112123Z 00012G17KT 11/M11 A3018 RMK A01 T01091112  RH  020%=      5-min Rain = 0
KLO1 112124Z 34013G19KT 11/M11 A3018 RMK A01 T01111110  RH  020%=      5-min Rain = 0
KLO1 112125Z 34020G26KT 11/M11 A3018 RMK A01 T01121110  RH  020%=      5-min Rain = 0
KLO1 112126Z 35019KT 11/M11 A3018 RMK A01 T01121112  RH  020%=      5-min Rain = 0
KLO1 112127Z 34021G28KT 11/M11 A3018 RMK A01 T01121113  RH  020%=      5-min Rain = 0
KLO1 112128Z 34023KT 11/M11 A3018 RMK A01 T01111114  RH  019%=      5-min Rain = 0
KLO1 112129Z 34020G25KT 11/M12 A3018 RMK A01 T01101115  RH  019%=      5-min Rain = 0
KLO1 112130Z 34019KT 11/M12 A3018 RMK A01 T01101115  RH  019%=      5-min Rain = 0
KLO1 112131Z 34020G25KT 11/M12 A3018 RMK A01 T01101116  RH  019%=      5-min Rain = 0
KLO1 112132Z 35018G24KT 11/M12 A3018 RMK A01 T01101116  RH  019%=      5-min Rain = 0
KLO1 112133Z 35014G20KT 11/M11 A3019 RMK A01 T01111114  RH  019%=      5-min Rain = 0
KLO1 112134Z 36017KT 11/M12 A3019 RMK A01 T01131115  RH  019%=      5-min Rain = 0
KLO1 112135Z 35015G20KT 11/M12 A3019 RMK A01 T01121116  RH  019%=      5-min Rain = 0
KLO1 112136Z 00017G22KT 11/M12 A3019 RMK A01 T01131115  RH  019%=      5-min Rain = 0
KLO1 112137Z 35015KT 11/M12 A3019 RMK A01 T01131115  RH  019%=      5-min Rain = 0
KLO1 112138Z 00016G21KT 11/M11 A3019 RMK A01 T01131114  RH  019%=      5-min Rain = 0
KLO1 112139Z 35018G23KT 11/M11 A3019 RMK A01 T01141114  RH  019%=      5-min Rain = 0
KLO1 112140Z 36020G27KT 11/M12 A3019 RMK A01 T01131115  RH  019%=      5-min Rain = 0
KLO1 112141Z 35018KT 11/M12 A3019 RMK A01 T01121117  RH  019%=      5-min Rain = 0
KLO1 112142Z 00015KT 11/M12 A3019 RMK A01 T01121116  RH  019%=      5-min Rain = 0
KLO1 112143Z 00015KT 11/M12 A3019 RMK A01 T01131115  RH  019%=      5-min Rain = 0
KLO1 112144Z 36017G22KT 11/M12 A3019 RMK A01 T01141115  RH  019%=      5-min Rain = 0
KLO1 112145Z 35016KT 11/M12 A3019 RMK A01 T01131115  RH  019%=      5-min Rain = 0
KLO1 112146Z 35018KT 11/M12 A3019 RMK A01 T01131115  RH  019%=      5-min Rain = 0
KLO1 112147Z 34017KT 11/M12 A3019 RMK A01 T01121115  RH  019%=      5-min Rain = 0
KLO1 112148Z 35015G20KT 11/M12 A3019 RMK A01 T01121115  RH  019%=      5-min Rain = 0
KLO1 112149Z 35020G25KT 11/M12 A302 RMK A01 T01121115  RH  019%=      5-min Rain = 0
KLO1 112150Z 34020KT 11/M12 A302 RMK A01 T01121116  RH  019%=      5-min Rain = 0
KLO1 112151Z 35019KT 11/M12 A302 RMK A01 T01111117  RH  019%=      5-min Rain = 0
KLO1 112152Z 35015KT 11/M12 A302 RMK A01 T01101117  RH  019%=      5-min Rain = 0
KLO1 112153Z 34021G26KT 11/M12 A3019 RMK A01 T01111116  RH  019%=      5-min Rain = 0
KLO1 112154Z 35019G24KT 11/M12 A302 RMK A01 T01111117  RH  019%=      5-min Rain = 0
KLO1 112155Z 35017KT 11/M12 A302 RMK A01 T01111117  RH  019%=      5-min Rain = 0
KLO1 112156Z 35015KT 11/M12 A302 RMK A01 T01111116  RH  019%=      5-min Rain = 0
KLO1 112157Z 01017KT 11/M12 A302 RMK A01 T01111116  RH  019%=      5-min Rain = 0
KLO1 112158Z 00016G21KT 11/M12 A302 RMK A01 T01101116  RH  019%=      5-min Rain = 0
KLO1 112159Z 01019KT 11/M12 A302 RMK A01 T01101116  RH  019%=      5-min Rain = 0
KLO1 112200Z 35017KT 11/M12 A302 RMK A01 T01101117  RH  019%=      5-min Rain = 0
KLO1 112201Z 35020G27KT 11/M12 A302 RMK A01 T01101116  RH  019%=      5-min Rain = 0
KLO1 112202Z 34018G23KT 11/M12 A302 RMK A01 T01111116  RH  019%=      5-min Rain = 0
KLO1 112203Z 35015KT 11/M12 A302 RMK A01 T01111115  RH  019%=      5-min Rain = 0
KLO1 112204Z 34014KT 11/M11 A302 RMK A01 T01121114  RH  019%=      5-min Rain = 0
KLO1 112205Z 35013G19KT 11/M11 A302 RMK A01 T01121114  RH  019%=      5-min Rain = 0
KLO1 112206Z 34014KT 11/M11 A302 RMK A01 T01131114  RH  019%=      5-min Rain = 0
KLO1 112207Z 34017KT 11/M11 A302 RMK A01 T01131113  RH  019%=      5-min Rain = 0
KLO1 112208Z 34016KT 11/M11 A302 RMK A01 T01141113  RH  019%=      5-min Rain = 0
KLO1 112209Z 34018KT 11/M11 A302 RMK A01 T01141112  RH  019%=      5-min Rain = 0
KLO1 112210Z 34016KT 11/M11 A302 RMK A01 T01141112  RH  019%=      5-min Rain = 0
KLO1 112211Z 35014KT 11/M11 A302 RMK A01 T01141111  RH  019%=      5-min Rain = 0
KLO1 112212Z 35014KT 11/M11 A302 RMK A01 T01141111  RH  019%=      5-min Rain = 0
KLO1 112213Z 34014KT 11/M11 A3021 RMK A01 T01141111  RH  020%=      5-min Rain = 0
KLO1 112214Z 34018KT 11/M11 A302 RMK A01 T01141111  RH  019%=      5-min Rain = 0
KLO1 112215Z 35016KT 11/M11 A302 RMK A01 T01131112  RH  020%=      5-min Rain = 0
KLO1 112216Z 35014KT 11/M11 A3021 RMK A01 T01131112  RH  020%=      5-min Rain = 0
KLO1 112217Z 35011KT 11/M11 A3021 RMK A01 T01141110  RH  020%=      5-min Rain = 0
KLO1 112218Z 34012KT 12/M11 A302 RMK A01 T01151109  RH  020%=      5-min Rain = 0
KLO1 112219Z 01018KT 12/M11 A3021 RMK A01 T01151110  RH  019%=      5-min Rain = 0
KLO1 112220Z 36014KT 11/M11 A3021 RMK A01 T01141111  RH  019%=      5-min Rain = 0
KLO1 112221Z 00017KT 11/M11 A3021 RMK A01 T01131111  RH  020%=      5-min Rain = 0
KLO1 112222Z 01015KT 11/M11 A3021 RMK A01 T01131110  RH  020%=      5-min Rain = 0
KLO1 112223Z 00014KT 11/M11 A3021 RMK A01 T01131110  RH  020%=      5-min Rain = 0
KLO1 112224Z 00014KT 11/M11 A3021 RMK A01 T01121110  RH  020%=      5-min Rain = 0
KLO1 112225Z 35010KT 11/M11 A3021 RMK A01 T01111110  RH  020%=      5-min Rain = 0
KLO1 112226Z 00011KT 11/M11 A3021 RMK A01 T01111109  RH  020%=      5-min Rain = 0
KLO1 112227Z 36013G18KT 11/M11 A3021 RMK A01 T01121109  RH  020%=      5-min Rain = 0
KLO1 112228Z 34013G20KT 11/M11 A3021 RMK A01 T01131109  RH  020%=      5-min Rain = 0
KLO1 112229Z 34019KT 11/M11 A3021 RMK A01 T01141109  RH  020%=      5-min Rain = 0
KLO1 112230Z 33017KT 11/M11 A3021 RMK A01 T01141110  RH  020%=      5-min Rain = 0
KLO1 112231Z 34018KT 11/M11 A3021 RMK A01 T01141110  RH  020%=      5-min Rain = 0
KLO1 112232Z 34019KT 11/M11 A3021 RMK A01 T01141111  RH  020%=      5-min Rain = 0
KLO1 112233Z 33018KT 11/M11 A3021 RMK A01 T01131111  RH  020%=      5-min Rain = 0
KLO1 112234Z 34016KT 11/M11 A3021 RMK A01 T01131110  RH  020%=      5-min Rain = 0
KLO1 112235Z 34015KT 11/M11 A3021 RMK A01 T01121110  RH  020%=      5-min Rain = 0
KLO1 112236Z 34015KT 11/M11 A3021 RMK A01 T01131110  RH  020%=      5-min Rain = 0
KLO1 112237Z 34015KT 11/M11 A3021 RMK A01 T01121111  RH  020%=      5-min Rain = 0
KLO1 112238Z 34015KT 11/M11 A3021 RMK A01 T01111110  RH  020%=      5-min Rain = 0
KLO1 112239Z 34017KT 11/M11 A3021 RMK A01 T01121110  RH  020%=      5-min Rain = 0
KLO1 112240Z 35015KT 11/M11 A3021 RMK A01 T01121112  RH  020%=      5-min Rain = 0
KLO1 112241Z 35015G20KT 11/M11 A3021 RMK A01 T01121112  RH  020%=      5-min Rain = 0
KLO1 112242Z 35015G21KT 11/M11 A3021 RMK A01 T01131111  RH  020%=      5-min Rain = 0
KLO1 112243Z 35013KT 11/M11 A3021 RMK A01 T01131110  RH  020%=      5-min Rain = 0
KLO1 112244Z 34014G19KT 11/M11 A3021 RMK A01 T01131111  RH  020%=      5-min Rain = 0
KLO1 112245Z 34015G20KT 11/M11 A3021 RMK A01 T01131112  RH  020%=      5-min Rain = 0
KLO1 112246Z 34015KT 11/M11 A3021 RMK A01 T01121112  RH  020%=      5-min Rain = 0
KLO1 112247Z 34016KT 11/M11 A3021 RMK A01 T01111111  RH  020%=      5-min Rain = 0
KLO1 112248Z 34015KT 11/M11 A3021 RMK A01 T01121111  RH  020%=      5-min Rain = 0
KLO1 112249Z 35012G17KT 11/M11 A3021 RMK A01 T01121110  RH  020%=      5-min Rain = 0
KLO1 112250Z 01015KT 11/M11 A3021 RMK A01 T01121110  RH  020%=      5-min Rain = 0
KLO1 112251Z 00017KT 11/M11 A3021 RMK A01 T01121112  RH  020%=      5-min Rain = 0
KLO1 112252Z 35012KT 11/M11 A3022 RMK A01 T01111113  RH  020%=      5-min Rain = 0
KLO1 112253Z 35012KT 11/M11 A3022 RMK A01 T01101113  RH  020%=      5-min Rain = 0
KLO1 112254Z 00015KT 11/M11 A3022 RMK A01 T01101113  RH  020%=      5-min Rain = 0
KLO1 112255Z 36011KT 11/M11 A3022 RMK A01 T01101113  RH  020%=      5-min Rain = 0
KLO1 112256Z 36015KT 11/M11 A3022 RMK A01 T01101113  RH  020%=      5-min Rain = 0
KLO1 112257Z 01017KT 11/M11 A3022 RMK A01 T01101114  RH  020%=      5-min Rain = 0
KLO1 112258Z 36013KT 11/M11 A3022 RMK A01 T01091114  RH  020%=      5-min Rain = 0
KLO1 112259Z 00011KT 11/M11 A3022 RMK A01 T01091114  RH  020%=      5-min Rain = 0
KLO1 112300Z 00012KT 11/M11 A3022 RMK A01 T01091113  RH  020%=      5-min Rain = 0
KLO1 112301Z 01018KT 11/M11 A3022 RMK A01 T01091114  RH  020%=      5-min Rain = 0
KLO1 112302Z 01016KT 11/M12 A3022 RMK A01 T01081115  RH  020%=      5-min Rain = 0
KLO1 112303Z 01017KT 11/M12 A3022 RMK A01 T01081115  RH  020%=      5-min Rain = 0
KLO1 112304Z 01019KT 11/M12 A3022 RMK A01 T01081115  RH  020%=      5-min Rain = 0
KLO1 112305Z 00017KT 11/M12 A3022 RMK A01 T01071115  RH  020%=      5-min Rain = 0
KLO1 112306Z 00016KT 11/M12 A3022 RMK A01 T01071115  RH  020%=      5-min Rain = 0
KLO1 112307Z 35012KT 11/M11 A3022 RMK A01 T01071114  RH  020%=      5-min Rain = 0
KLO1 112308Z 35012KT 11/M11 A3022 RMK A01 T01071114  RH  020%=      5-min Rain = 0
KLO1 112309Z 34013KT 11/M11 A3022 RMK A01 T01071114  RH  020%=      5-min Rain = 0
KLO1 112310Z 35011KT 11/M11 A3022 RMK A01 T01071114  RH  020%=      5-min Rain = 0
KLO1 112311Z 35013G18KT 11/M11 A3022 RMK A01 T01071113  RH  020%=      5-min Rain = 0
KLO1 112312Z 36013KT 11/M11 A3022 RMK A01 T01071113  RH  020%=      5-min Rain = 0
KLO1 112313Z 35011KT 11/M11 A3022 RMK A01 T01071113  RH  020%=      5-min Rain = 0
KLO1 112314Z 34014KT 11/M11 A3022 RMK A01 T01071113  RH  020%=      5-min Rain = 0
KLO1 112315Z 35014KT 11/M11 A3022 RMK A01 T01071113  RH  020%=      5-min Rain = 0
KLO1 112316Z 35010KT 11/M11 A3022 RMK A01 T01071113  RH  020%=      5-min Rain = 0
KLO1 112317Z 35015KT 11/M11 A3022 RMK A01 T01071112  RH  020%=      5-min Rain = 0
KLO1 112318Z 34015KT 11/M11 A3022 RMK A01 T01061113  RH  020%=      5-min Rain = 0
KLO1 112319Z 34016KT 11/M11 A3022 RMK A01 T01061113  RH  020%=      5-min Rain = 0
KLO1 112320Z 35013KT 11/M11 A3022 RMK A01 T01051113  RH  020%=      5-min Rain = 0
KLO1 112321Z 35012KT 11/M11 A3022 RMK A01 T01051113  RH  020%=      5-min Rain = 0
KLO1 112322Z 36012KT 11/M11 A3022 RMK A01 T01051113  RH  020%=      5-min Rain = 0
KLO1 112323Z 00012KT 11/M11 A3022 RMK A01 T01051113  RH  020%=      5-min Rain = 0
KLO1 112324Z 00013KT 11/M11 A3022 RMK A01 T01051113  RH  020%=      5-min Rain = 0
KLO1 112325Z 01013KT 11/M11 A3022 RMK A01 T01051113  RH  020%=      5-min Rain = 0
KLO1 112326Z 35014G19KT 10/M11 A3022 RMK A01 T01041113  RH  020%=      5-min Rain = 0
KLO1 112327Z 00014KT 10/M11 A3022 RMK A01 T01041113  RH  020%=      5-min Rain = 0
KLO1 112328Z 36014KT 10/M11 A3022 RMK A01 T01041113  RH  020%=      5-min Rain = 0
KLO1 112329Z 00011KT 10/M11 A3022 RMK A01 T01041113  RH  020%=      5-min Rain = 0
KLO1 112330Z 00010KT 10/M11 A3022 RMK A01 T01041113  RH  021%=      5-min Rain = 0
KLO1 112331Z 36011KT 10/M11 A3022 RMK A01 T01041113  RH  021%=      5-min Rain = 0
KLO1 112332Z 35010KT 10/M11 A3023 RMK A01 T01031113  RH  021%=      5-min Rain = 0
KLO1 112333Z 34010KT 10/M11 A3023 RMK A01 T01031112  RH  021%=      5-min Rain = 0
KLO1 112334Z 34011KT 10/M11 A3023 RMK A01 T01031111  RH  021%=      5-min Rain = 0
KLO1 112335Z 35011G16KT 10/M11 A3023 RMK A01 T01021112  RH  021%=      5-min Rain = 0
KLO1 112336Z 34015KT 10/M11 A3023 RMK A01 T01021112  RH  021%=      5-min Rain = 0
KLO1 112337Z 34014KT 10/M11 A3023 RMK A01 T01021113  RH  021%=      5-min Rain = 0
KLO1 112338Z 34013KT 10/M11 A3023 RMK A01 T01021113  RH  021%=      5-min Rain = 0
KLO1 112339Z 35012KT 10/M11 A3023 RMK A01 T01021112  RH  021%=      5-min Rain = 0
KLO1 112340Z 35010KT 10/M11 A3023 RMK A01 T01011113  RH  021%=      5-min Rain = 0
KLO1 112341Z 35010KT 10/M11 A3023 RMK A01 T01001113  RH  021%=      5-min Rain = 0
KLO1 112342Z 35010KT 10/M11 A3023 RMK A01 T00991113  RH  021%=      5-min Rain = 0
KLO1 112343Z 01009KT 10/M11 A3023 RMK A01 T00991112  RH  021%=      5-min Rain = 0
KLO1 112344Z 36009KT 10/M11 A3023 RMK A01 T00991112  RH  021%=      5-min Rain = 0
KLO1 112345Z 35008KT 10/M11 A3023 RMK A01 T00991112  RH  021%=      5-min Rain = 0
KLO1 112346Z 35007KT 10/M11 A3023 RMK A01 T00991112  RH  021%=      5-min Rain = 0
KLO1 112347Z 35007KT 10/M11 A3023 RMK A01 T00981112  RH  022%=      5-min Rain = 0
KLO1 112348Z 35011KT 10/M11 A3023 RMK A01 T00971113  RH  022%=      5-min Rain = 0
KLO1 112349Z 36011KT 10/M11 A3023 RMK A01 T00971113  RH  022%=      5-min Rain = 0
KLO1 112350Z 35009KT 10/M11 A3023 RMK A01 T00971113  RH  021%=      5-min Rain = 0
KLO1 112351Z 35010KT 10/M11 A3023 RMK A01 T00971113  RH  021%=      5-min Rain = 0
KLO1 112352Z 35010KT 10/M11 A3023 RMK A01 T00961113  RH  022%=      5-min Rain = 0
KLO1 112353Z 35009KT 10/M11 A3023 RMK A01 T00961113  RH  022%=      5-min Rain = 0
KLO1 112354Z 35010KT 10/M11 A3024 RMK A01 T00961113  RH  022%=      5-min Rain = 0
KLO1 112355Z 36009KT 10/M11 A3024 RMK A01 T00961113  RH  022%=      5-min Rain = 0
KLO1 112356Z 35009KT 10/M11 A3024 RMK A01 T00951113  RH  022%=      5-min Rain = 0
KLO1 112357Z 35008KT 10/M11 A3024 RMK A01 T00951113  RH  022%=      5-min Rain = 0
KLO1 112358Z 35009KT 10/M11 A3024 RMK A01 T00951113  RH  022%=      5-min Rain = 0
KLO1 112359Z 35009KT 10/M11 A3024 RMK A01 T00951113  RH  022%=      5-min Rain = 0
KLO1 120000Z 35008KT 09/M11 A3024 RMK A01 T00941113  RH  022%=      5-min Rain = 0
KLO1 120001Z 35008KT 09/M11 A3024 RMK A01 T00941113  RH  022%=      5-min Rain = 0
KLO1 120002Z 35009KT 09/M11 A3024 RMK A01 T00931113  RH  022%=      5-min Rain = 0
KLO1 120003Z 35009KT 09/M11 A3024 RMK A01 T00931113  RH  022%=      5-min Rain = 0
KLO1 120004Z 35009KT 09/M11 A3024 RMK A01 T00921113  RH  022%=      5-min Rain = 0
KLO1 120005Z 34008KT 09/M11 A3024 RMK A01 T00921113  RH  022%=      5-min Rain = 0
KLO1 120006Z 35007KT 09/M11 A3024 RMK A01 T00921112  RH  022%=      5-min Rain = 0
KLO1 120007Z 35008KT 09/M11 A3024 RMK A01 T00911112  RH  023%=      5-min Rain = 0
KLO1 120008Z 36007KT 09/M11 A3024 RMK A01 T00911112  RH  023%=      5-min Rain = 0
KLO1 120009Z 36007KT 09/M11 A3024 RMK A01 T00901113  RH  023%=      5-min Rain = 0
KLO1 120010Z 35007KT 09/M11 A3024 RMK A01 T00891113  RH  023%=      5-min Rain = 0
KLO1 120011Z 35008KT 09/M11 A3024 RMK A01 T00891113  RH  023%=      5-min Rain = 0
KLO1 120012Z 35008KT 09/M11 A3025 RMK A01 T00881112  RH  023%=      5-min Rain = 0
KLO1 120013Z 35007KT 09/M11 A3025 RMK A01 T00881112  RH  023%=      5-min Rain = 0
KLO1 120014Z 35007KT 09/M11 A3025 RMK A01 T00871112  RH  023%=      5-min Rain = 0
KLO1 120015Z 35006KT 09/M11 A3025 RMK A01 T00871113  RH  023%=      5-min Rain = 0
KLO1 120016Z 35007KT 09/M11 A3025 RMK A01 T00871112  RH  023%=      5-min Rain = 0
KLO1 120017Z 35006KT 09/M11 A3025 RMK A01 T00871112  RH  023%=      5-min Rain = 0
KLO1 120018Z 36008KT 09/M11 A3025 RMK A01 T00861112  RH  023%=      5-min Rain = 0
KLO1 120019Z 35007KT 09/M11 A3025 RMK A01 T00851111  RH  024%=      5-min Rain = 0
KLO1 120020Z 35006KT 09/M11 A3025 RMK A01 T00851111  RH  024%=      5-min Rain = 0
KLO1 120021Z 35006KT 09/M11 A3025 RMK A01 T00851110  RH  024%=      5-min Rain = 0
KLO1 120022Z 35006KT 08/M11 A3025 RMK A01 T00841110  RH  024%=      5-min Rain = 0
KLO1 120023Z 35006KT 08/M11 A3025 RMK A01 T00831111  RH  024%=      5-min Rain = 0
KLO1 120024Z 36006KT 08/M11 A3025 RMK A01 T00821110  RH  024%=      5-min Rain = 0
KLO1 120025Z 36010KT 08/M11 A3025 RMK A01 T00821110  RH  024%=      5-min Rain = 0
KLO1 120026Z 36010KT 08/M11 A3025 RMK A01 T00831109  RH  024%=      5-min Rain = 0
KLO1 120027Z 01010KT 08/M11 A3025 RMK A01 T00841109  RH  024%=      5-min Rain = 0
KLO1 120028Z 35010KT 08/M11 A3025 RMK A01 T00841110  RH  024%=      5-min Rain = 0
KLO1 120029Z 36010KT 08/M11 A3025 RMK A01 T00841110  RH  024%=      5-min Rain = 0
KLO1 120030Z 00009KT 09/M11 A3025 RMK A01 T00851110  RH  024%=      5-min Rain = 0
KLO1 120031Z 36008KT 08/M11 A3025 RMK A01 T00841110  RH  024%=      5-min Rain = 0
KLO1 120032Z 35008KT 08/M11 A3025 RMK A01 T00841110  RH  024%=      5-min Rain = 0
KLO1 120033Z 35007KT 08/M11 A3025 RMK A01 T00831110  RH  024%=      5-min Rain = 0
KLO1 120034Z 36010KT 08/M11 A3025 RMK A01 T00831110  RH  024%=      5-min Rain = 0
KLO1 120035Z 00010KT 08/M11 A3025 RMK A01 T00821111  RH  024%=      5-min Rain = 0
KLO1 120036Z 00009KT 08/M11 A3025 RMK A01 T00831111  RH  024%=      5-min Rain = 0
KLO1 120037Z 36008KT 08/M11 A3025 RMK A01 T00831111  RH  024%=      5-min Rain = 0
KLO1 120038Z 36007KT 08/M11 A3025 RMK A01 T00821111  RH  024%=      5-min Rain = 0
KLO1 120039Z 35007KT 08/M11 A3025 RMK A01 T00811111  RH  024%=      5-min Rain = 0
KLO1 120040Z 35006KT 08/M11 A3025 RMK A01 T00801111  RH  024%=      5-min Rain = 0
KLO1 120041Z 36007KT 08/M11 A3025 RMK A01 T00801111  RH  024%=      5-min Rain = 0
KLO1 120042Z 00007KT 08/M11 A3025 RMK A01 T00801111  RH  024%=      5-min Rain = 0
KLO1 120043Z 00007KT 08/M11 A3025 RMK A01 T00801111  RH  024%=      5-min Rain = 0
KLO1 120044Z 00007KT 08/M11 A3025 RMK A01 T00801111  RH  024%=      5-min Rain = 0
KLO1 120045Z 36008KT 08/M11 A3025 RMK A01 T00801111  RH  024%=      5-min Rain = 0
KLO1 120046Z 36009KT 08/M11 A3025 RMK A01 T00791111  RH  025%=      5-min Rain = 0
KLO1 120047Z 00007KT 08/M11 A3025 RMK A01 T00791111  RH  025%=      5-min Rain = 0
KLO1 120048Z 00007KT 08/M11 A3025 RMK A01 T00791112  RH  025%=      5-min Rain = 0
KLO1 120049Z 01007KT 08/M11 A3025 RMK A01 T00781112  RH  025%=      5-min Rain = 0
KLO1 120050Z 01006KT 08/M11 A3025 RMK A01 T00771111  RH  025%=      5-min Rain = 0
KLO1 120051Z 01006KT 08/M11 A3025 RMK A01 T00761112  RH  025%=      5-min Rain = 0
KLO1 120052Z 01007KT 08/M11 A3025 RMK A01 T00751112  RH  025%=      5-min Rain = 0
KLO1 120053Z 01007KT 07/M11 A3025 RMK A01 T00741113  RH  025%=      5-min Rain = 0
KLO1 120054Z 01007KT 07/M11 A3025 RMK A01 T00731113  RH  025%=      5-min Rain = 0
KLO1 120055Z 01008KT 07/M11 A3025 RMK A01 T00721113  RH  026%=      5-min Rain = 0
KLO1 120056Z 02007KT 07/M11 A3025 RMK A01 T00711112  RH  026%=      5-min Rain = 0
KLO1 120057Z 01007KT 07/M11 A3025 RMK A01 T00701112  RH  026%=      5-min Rain = 0
KLO1 120058Z 01008KT 07/M11 A3025 RMK A01 T00701113  RH  026%=      5-min Rain = 0
KLO1 120059Z 01007KT 07/M11 A3025 RMK A01 T00691112  RH  026%=      5-min Rain = 0
KLO1 120100Z 00007KT 07/M11 A3025 RMK A01 T00691112  RH  026%=      5-min Rain = 0
KLO1 120101Z 01008KT 07/M11 A3026 RMK A01 T00691112  RH  026%=      5-min Rain = 0
KLO1 120102Z 01007KT 07/M11 A3026 RMK A01 T00691112  RH  026%=      5-min Rain = 0
KLO1 120103Z 36007KT 07/M11 A3026 RMK A01 T00691112  RH  026%=      5-min Rain = 0
KLO1 120104Z 01007KT 07/M11 A3026 RMK A01 T00691112  RH  026%=      5-min Rain = 0
KLO1 120105Z 00007KT 07/M11 A3026 RMK A01 T00681112  RH  026%=      5-min Rain = 0
KLO1 120106Z 36007KT 07/M11 A3026 RMK A01 T00691112  RH  026%=      5-min Rain = 0
KLO1 120107Z 01007KT 07/M11 A3026 RMK A01 T00691112  RH  026%=      5-min Rain = 0
KLO1 120108Z 00006KT 07/M11 A3026 RMK A01 T00681112  RH  026%=      5-min Rain = 0
KLO1 120109Z 00006KT 07/M11 A3026 RMK A01 T00681113  RH  026%=      5-min Rain = 0
KLO1 120110Z 00006KT 07/M11 A3026 RMK A01 T00671113  RH  026%=      5-min Rain = 0
KLO1 120111Z 01006KT 07/M11 A3026 RMK A01 T00671113  RH  026%=      5-min Rain = 0
KLO1 120112Z 01006KT 07/M11 A3026 RMK A01 T00671113  RH  026%=      5-min Rain = 0
KLO1 120113Z 00006KT 07/M11 A3026 RMK A01 T00671113  RH  026%=      5-min Rain = 0
KLO1 120114Z 01006KT 07/M11 A3026 RMK A01 T00651113  RH  027%=      5-min Rain = 0
KLO1 120115Z 00006KT 06/M11 A3026 RMK A01 T00641114  RH  027%=      5-min Rain = 0
KLO1 120116Z 01007KT 06/M11 A3026 RMK A01 T00641113  RH  027%=      5-min Rain = 0
KLO1 120117Z 00006KT 06/M11 A3026 RMK A01 T00631114  RH  027%=      5-min Rain = 0
KLO1 120118Z 01006KT 06/M11 A3026 RMK A01 T00621114  RH  027%=      5-min Rain = 0
KLO1 120119Z 01007KT 06/M11 A3026 RMK A01 T00621114  RH  027%=      5-min Rain = 0
KLO1 120120Z 00006KT 06/M11 A3026 RMK A01 T00611114  RH  027%=      5-min Rain = 0
KLO1 120121Z 01006KT 06/M11 A3026 RMK A01 T00611114  RH  027%=      5-min Rain = 0
KLO1 120122Z 00006KT 06/M11 A3026 RMK A01 T00611113  RH  027%=      5-min Rain = 0
KLO1 120123Z 01005KT 06/M11 A3026 RMK A01 T00621113  RH  027%=      5-min Rain = 0
KLO1 120124Z 01006KT 06/M11 A3026 RMK A01 T00621113  RH  027%=      5-min Rain = 0
KLO1 120125Z 01006KT 06/M11 A3026 RMK A01 T00611113  RH  027%=      5-min Rain = 0
KLO1 120126Z 01006KT 06/M11 A3026 RMK A01 T00601113  RH  028%=      5-min Rain = 0
KLO1 120127Z 00006KT 06/M11 A3026 RMK A01 T00601113  RH  028%=      5-min Rain = 0
KLO1 120128Z 00005KT 06/M11 A3026 RMK A01 T00591113  RH  028%=      5-min Rain = 0
KLO1 120129Z 01006KT 06/M11 A3026 RMK A01 T00581112  RH  028%=      5-min Rain = 0
KLO1 120130Z 01006KT 06/M11 A3026 RMK A01 T00581112  RH  028%=      5-min Rain = 0
KLO1 120131Z 01006KT 06/M11 A3026 RMK A01 T00571112  RH  028%=      5-min Rain = 0
KLO1 120132Z 01005KT 06/M11 A3026 RMK A01 T00551113  RH  029%=      5-min Rain = 0
KLO1 120133Z 01005KT 05/M11 A3026 RMK A01 T00541114  RH  029%=      5-min Rain = 0
KLO1 120134Z 01005KT 05/M12 A3026 RMK A01 T00511115  RH  029%=      5-min Rain = 0
KLO1 120135Z 01005KT 05/M11 A3026 RMK A01 T00501114  RH  029%=      5-min Rain = 0
KLO1 120136Z 01005KT 05/M11 A3026 RMK A01 T00491114  RH  030%=      5-min Rain = 0
KLO1 120137Z 01005KT 05/M11 A3026 RMK A01 T00481114  RH  030%=      5-min Rain = 0
KLO1 120138Z 01005KT 05/M11 A3026 RMK A01 T00481113  RH  030%=      5-min Rain = 0
KLO1 120139Z 01005KT 05/M11 A3026 RMK A01 T00481112  RH  030%=      5-min Rain = 0
KLO1 120140Z 01005KT 05/M11 A3026 RMK A01 T00471113  RH  030%=      5-min Rain = 0
KLO1 120141Z 01005KT 05/M11 A3026 RMK A01 T00471112  RH  030%=      5-min Rain = 0
KLO1 120142Z 01005KT 05/M11 A3026 RMK A01 T00471112  RH  030%=      5-min Rain = 0
KLO1 120143Z 01005KT 05/M11 A3026 RMK A01 T00471112  RH  031%=      5-min Rain = 0
KLO1 120144Z 01005KT 05/M11 A3027 RMK A01 T00471111  RH  031%=      5-min Rain = 0
KLO1 120145Z 01005KT 05/M11 A3027 RMK A01 T00471111  RH  031%=      5-min Rain = 0
KLO1 120146Z 00004KT 05/M11 A3027 RMK A01 T00481111  RH  031%=      5-min Rain = 0
KLO1 120147Z 00004KT 05/M11 A3027 RMK A01 T00481111  RH  031%=      5-min Rain = 0
KLO1 120148Z 01003KT 05/M11 A3027 RMK A01 T00481110  RH  031%=      5-min Rain = 0
KLO1 120149Z 00003KT 05/M11 A3027 RMK A01 T00491110  RH  031%=      5-min Rain = 0
KLO1 120150Z 36003KT 05/M11 A3027 RMK A01 T00491110  RH  031%=      5-min Rain = 0
KLO1 120151Z 36002KT 05/M11 A3027 RMK A01 T00491110  RH  030%=      5-min Rain = 0
KLO1 120152Z 36001KT 05/M11 A3027 RMK A01 T00481111  RH  030%=      5-min Rain = 0
KLO1 120153Z 32001KT 05/M11 A3027 RMK A01 T00471112  RH  030%=      5-min Rain = 0
KLO1 120154Z 34000KT 05/M11 A3027 RMK A01 T00461113  RH  031%=      5-min Rain = 0
KLO1 120155Z 35000KT 05/M11 A3027 RMK A01 T00451113  RH  031%=      5-min Rain = 0
KLO1 120156Z 35001KT 04/M11 A3027 RMK A01 T00431114  RH  031%=      5-min Rain = 0
KLO1 120157Z 34001KT 04/M11 A3027 RMK A01 T00421114  RH  031%=      5-min Rain = 0
KLO1 120158Z 33001KT 04/M11 A3027 RMK A01 T00431114  RH  031%=      5-min Rain = 0
KLO1 120159Z 33001KT 04/M11 A3027 RMK A01 T00431114  RH  031%=      5-min Rain = 0
KLO1 120200Z 33001KT 04/M12 A3028 RMK A01 T00431115  RH  031%=      5-min Rain = 0
KLO1 120201Z 00000KT 04/M12 A3028 RMK A01 T00411116  RH  031%=      5-min Rain = 0
KLO1 120202Z 00000KT 04/M12 A3028 RMK A01 T00391116  RH  031%=      5-min Rain = 0
KLO1 120203Z 30000KT 04/M12 A3028 RMK A01 T00351117  RH  032%=      5-min Rain = 0
KLO1 120204Z 30000KT 03/M12 A3028 RMK A01 T00321118  RH  032%=      5-min Rain = 0
KLO1 120205Z 30001KT 03/M12 A3028 RMK A01 T00301118  RH  033%=      5-min Rain = 0
KLO1 120206Z 30001KT 03/M12 A3028 RMK A01 T00281119  RH  033%=      5-min Rain = 0
KLO1 120207Z 31001KT 03/M12 A3028 RMK A01 T00261120  RH  033%=      5-min Rain = 0
KLO1 120208Z 31002KT 02/M12 A3028 RMK A01 T00241120  RH  034%=      5-min Rain = 0
KLO1 120209Z 31002KT 02/M12 A3028 RMK A01 T00231118  RH  034%=      5-min Rain = 0
KLO1 120210Z 31002KT 02/M12 A3028 RMK A01 T00231116  RH  035%=      5-min Rain = 0
KLO1 120211Z 31002KT 02/M12 A3028 RMK A01 T00231116  RH  035%=      5-min Rain = 0
KLO1 120212Z 31002KT 02/M12 A3028 RMK A01 T00231116  RH  035%=      5-min Rain = 0
KLO1 120213Z 31002KT 02/M12 A3028 RMK A01 T00231115  RH  035%=      5-min Rain = 0
KLO1 120214Z 32002KT 02/M11 A3028 RMK A01 T00241114  RH  035%=      5-min Rain = 0
KLO1 120215Z 32002KT 03/M11 A3028 RMK A01 T00251114  RH  035%=      5-min Rain = 0
KLO1 120216Z 32002KT 03/M11 A3028 RMK A01 T00261113  RH  035%=      5-min Rain = 0
KLO1 120217Z 33002KT 03/M11 A3028 RMK A01 T00261113  RH  035%=      5-min Rain = 0
KLO1 120218Z 33002KT 03/M11 A3028 RMK A01 T00261113  RH  035%=      5-min Rain = 0
KLO1 120219Z 34002KT 03/M11 A3028 RMK A01 T00271113  RH  035%=      5-min Rain = 0
KLO1 120220Z 34002KT 03/M11 A3028 RMK A01 T00271113  RH  035%=      5-min Rain = 0
KLO1 120221Z 34002KT 03/M11 A3028 RMK A01 T00271113  RH  035%=      5-min Rain = 0
KLO1 120222Z 35002KT 03/M11 A3028 RMK A01 T00271113  RH  035%=      5-min Rain = 0
KLO1 120223Z 35002KT 03/M11 A3028 RMK A01 T00281114  RH  035%=      5-min Rain = 0
KLO1 120224Z 35002KT 03/M11 A3028 RMK A01 T00281114  RH  034%=      5-min Rain = 0
KLO1 120225Z 35002KT 03/M11 A3028 RMK A01 T00281114  RH  034%=      5-min Rain = 0
KLO1 120226Z 35002KT 03/M11 A3028 RMK A01 T00291114  RH  034%=      5-min Rain = 0
KLO1 120227Z 35001KT 03/M11 A3028 RMK A01 T00291114  RH  034%=      5-min Rain = 0
KLO1 120228Z 34001KT 03/M11 A3028 RMK A01 T00291114  RH  034%=      5-min Rain = 0
KLO1 120229Z 02001KT 03/M11 A3028 RMK A01 T00291114  RH  034%=      5-min Rain = 0
KLO1 120230Z 00001KT 03/M11 A3028 RMK A01 T00291113  RH  034%=      5-min Rain = 0
KLO1 120231Z 01001KT 03/M11 A3028 RMK A01 T00281113  RH  035%=      5-min Rain = 0
KLO1 120232Z 01000KT 03/M11 A3028 RMK A01 T00281113  RH  035%=      5-min Rain = 0
KLO1 120233Z 00000KT 03/M11 A3028 RMK A01 T00281112  RH  035%=      5-min Rain = 0
KLO1 120234Z 00000KT 03/M11 A3028 RMK A01 T00271112  RH  035%=      5-min Rain = 0
KLO1 120235Z 00000KT 03/M11 A3028 RMK A01 T00261113  RH  035%=      5-min Rain = 0
KLO1 120236Z 00000KT 03/M11 A3028 RMK A01 T00261113  RH  035%=      5-min Rain = 0
KLO1 120237Z 00000KT 03/M11 A3028 RMK A01 T00251113  RH  035%=      5-min Rain = 0
KLO1 120238Z 00000KT 03/M11 A3028 RMK A01 T00251112  RH  035%=      5-min Rain = 0
KLO1 120239Z 00000KT 03/M11 A3028 RMK A01 T00251112  RH  036%=      5-min Rain = 0
KLO1 120240Z 00000KT 03/M11 A3028 RMK A01 T00261112  RH  036%=      5-min Rain = 0
KLO1 120241Z 34000KT 03/M11 A3028 RMK A01 T00261112  RH  035%=      5-min Rain = 0
KLO1 120242Z 00000KT 03/M11 A3028 RMK A01 T00261112  RH  035%=      5-min Rain = 0
KLO1 120243Z 00001KT 03/M11 A3028 RMK A01 T00261113  RH  035%=      5-min Rain = 0
KLO1 120244Z 01002KT 03/M11 A3028 RMK A01 T00261112  RH  035%=      5-min Rain = 0
KLO1 120245Z 01002KT 03/M11 A3028 RMK A01 T00261112  RH  036%=      5-min Rain = 0
KLO1 120246Z 01002KT 03/M11 A3028 RMK A01 T00251111  RH  036%=      5-min Rain = 0
KLO1 120247Z 01002KT 03/M11 A3028 RMK A01 T00251110  RH  036%=      5-min Rain = 0
KLO1 120248Z 01002KT 03/M11 A3028 RMK A01 T00251110  RH  036%=      5-min Rain = 0
KLO1 120249Z 01002KT 02/M11 A3028 RMK A01 T00241110  RH  036%=      5-min Rain = 0
KLO1 120250Z 01002KT 02/M11 A3028 RMK A01 T00241109  RH  037%=      5-min Rain = 0
KLO1 120251Z 01003KT 02/M11 A3028 RMK A01 T00241109  RH  037%=      5-min Rain = 0
KLO1 120252Z 01003KT 02/M11 A3028 RMK A01 T00241110  RH  036%=      5-min Rain = 0
KLO1 120253Z 01003KT 03/M11 A3028 RMK A01 T00251111  RH  036%=      5-min Rain = 0
KLO1 120254Z 02004KT 03/M11 A3028 RMK A01 T00251111  RH  036%=      5-min Rain = 0
KLO1 120255Z 02004KT 03/M11 A3028 RMK A01 T00251111  RH  036%=      5-min Rain = 0
KLO1 120256Z 02004KT 03/M11 A3028 RMK A01 T00251111  RH  036%=      5-min Rain = 0
KLO1 120257Z 02004KT 03/M11 A3028 RMK A01 T00251111  RH  036%=      5-min Rain = 0
KLO1 120258Z 02004KT 03/M11 A3028 RMK A01 T00251111  RH  036%=      5-min Rain = 0
KLO1 120259Z 01004KT 03/M11 A3028 RMK A01 T00261111  RH  035%=      5-min Rain = 0
KLO1 120300Z 02004KT 03/M11 A3028 RMK A01 T00271112  RH  035%=      5-min Rain = 0
KLO1 120301Z 02004KT 03/M11 A3028 RMK A01 T00281111  RH  035%=      5-min Rain = 0
KLO1 120302Z 02004KT 03/M11 A3028 RMK A01 T00301110  RH  035%=      5-min Rain = 0
KLO1 120303Z 02003KT 03/M11 A3028 RMK A01 T00321110  RH  034%=      5-min Rain = 0
KLO1 120304Z 01003KT 03/M11 A3028 RMK A01 T00341110  RH  034%=      5-min Rain = 0
KLO1 120305Z 02003KT 04/M11 A3028 RMK A01 T00351111  RH  034%=      5-min Rain = 0
KLO1 120306Z 01003KT 04/M11 A3028 RMK A01 T00351111  RH  033%=      5-min Rain = 0
KLO1 120307Z 02003KT 04/M11 A3028 RMK A01 T00361112  RH  033%=      5-min Rain = 0
KLO1 120308Z 02003KT 04/M11 A3028 RMK A01 T00351112  RH  033%=      5-min Rain = 0
KLO1 120309Z 02003KT 03/M11 A3028 RMK A01 T00331114  RH  033%=      5-min Rain = 0
KLO1 120310Z 03003KT 03/M11 A3028 RMK A01 T00321114  RH  033%=      5-min Rain = 0
KLO1 120311Z 03003KT 03/M11 A3029 RMK A01 T00311114  RH  033%=      5-min Rain = 0
KLO1 120312Z 04002KT 03/M11 A3029 RMK A01 T00311114  RH  034%=      5-min Rain = 0
KLO1 120313Z 04002KT 03/M11 A3029 RMK A01 T00311114  RH  034%=      5-min Rain = 0
KLO1 120314Z 04001KT 03/M11 A3029 RMK A01 T00301114  RH  034%=      5-min Rain = 0
KLO1 120315Z 03001KT 03/M11 A3029 RMK A01 T00301114  RH  034%=      5-min Rain = 0
KLO1 120316Z 03001KT 03/M11 A3029 RMK A01 T00301114  RH  034%=      5-min Rain = 0
KLO1 120317Z 03000KT 03/M11 A3028 RMK A01 T00301114  RH  034%=      5-min Rain = 0
KLO1 120318Z 02000KT 03/M12 A3028 RMK A01 T00291115  RH  034%=      5-min Rain = 0
KLO1 120319Z 02000KT 03/M12 A3029 RMK A01 T00281115  RH  034%=      5-min Rain = 0
KLO1 120320Z 02000KT 03/M12 A3029 RMK A01 T00261116  RH  034%=      5-min Rain = 0
KLO1 120321Z 00000KT 03/M12 A3029 RMK A01 T00251118  RH  034%=      5-min Rain = 0
KLO1 120322Z 00000KT 02/M12 A3029 RMK A01 T00231119  RH  034%=      5-min Rain = 0
KLO1 120323Z 00000KT 02/M12 A3029 RMK A01 T00221118  RH  035%=      5-min Rain = 0
KLO1 120324Z 00000KT 02/M12 A3029 RMK A01 T00221117  RH  035%=      5-min Rain = 0
KLO1 120325Z 00000KT 02/M12 A3029 RMK A01 T00231117  RH  035%=      5-min Rain = 0
KLO1 120326Z 00000KT 02/M12 A3029 RMK A01 T00231115  RH  035%=      5-min Rain = 0
KLO1 120327Z 00000KT 02/M12 A3029 RMK A01 T00241115  RH  035%=      5-min Rain = 0
KLO1 120328Z 04000KT 02/M11 A3029 RMK A01 T00241114  RH  035%=      5-min Rain = 0
KLO1 120329Z 04001KT 03/M11 A3029 RMK A01 T00251114  RH  035%=      5-min Rain = 0
KLO1 120330Z 03001KT 03/M11 A3029 RMK A01 T00261114  RH  035%=      5-min Rain = 0
KLO1 120331Z 03001KT 03/M11 A3029 RMK A01 T00261114  RH  035%=      5-min Rain = 0
KLO1 120332Z 03001KT 03/M11 A3029 RMK A01 T00261114  RH  035%=      5-min Rain = 0
KLO1 120333Z 02001KT 03/M12 A3029 RMK A01 T00261115  RH  035%=      5-min Rain = 0
KLO1 120334Z 02002KT 03/M11 A3029 RMK A01 T00261114  RH  035%=      5-min Rain = 0
KLO1 120335Z 02002KT 03/M12 A3029 RMK A01 T00251115  RH  035%=      5-min Rain = 0
KLO1 120336Z 01002KT 02/M12 A3029 RMK A01 T00241115  RH  035%=      5-min Rain = 0
KLO1 120337Z 01002KT 02/M11 A3029 RMK A01 T00241113  RH  035%=      5-min Rain = 0
KLO1 120338Z 01003KT 03/M11 A3029 RMK A01 T00251113  RH  036%=      5-min Rain = 0
KLO1 120339Z 01003KT 03/M11 A3029 RMK A01 T00271111  RH  035%=      5-min Rain = 0
KLO1 120340Z 01003KT 03/M11 A3029 RMK A01 T00291112  RH  035%=      5-min Rain = 0
KLO1 120341Z 01003KT 03/M11 A3029 RMK A01 T00301113  RH  034%=      5-min Rain = 0
KLO1 120342Z 01003KT 03/M11 A3029 RMK A01 T00301113  RH  034%=      5-min Rain = 0
KLO1 120343Z 01003KT 03/M11 A3029 RMK A01 T00301113  RH  034%=      5-min Rain = 0
KLO1 120344Z 01003KT 03/M11 A3029 RMK A01 T00291113  RH  034%=      5-min Rain = 0
KLO1 120345Z 02002KT 03/M11 A3029 RMK A01 T00281113  RH  035%=      5-min Rain = 0
KLO1 120346Z 02003KT 03/M11 A3029 RMK A01 T00271113  RH  035%=      5-min Rain = 0
KLO1 120347Z 02002KT 03/M11 A3029 RMK A01 T00271113  RH  035%=      5-min Rain = 0
KLO1 120348Z 02003KT 03/M11 A3029 RMK A01 T00261113  RH  035%=      5-min Rain = 0
KLO1 120349Z 02003KT 03/M11 A3029 RMK A01 T00251113  RH  035%=      5-min Rain = 0
KLO1 120350Z 02003KT 02/M11 A3029 RMK A01 T00241113  RH  036%=      5-min Rain = 0
KLO1 120351Z 02003KT 02/M11 A3029 RMK A01 T00231114  RH  036%=      5-min Rain = 0
KLO1 120352Z 03003KT 02/M12 A3029 RMK A01 T00221115  RH  036%=      5-min Rain = 0
KLO1 120353Z 03003KT 02/M12 A3029 RMK A01 T00221115  RH  036%=      5-min Rain = 0
KLO1 120354Z 03003KT 02/M12 A3029 RMK A01 T00211115  RH  036%=      5-min Rain = 0
KLO1 120355Z 03003KT 02/M12 A303 RMK A01 T00201115  RH  036%=      5-min Rain = 0
KLO1 120356Z 03002KT 02/M11 A303 RMK A01 T00201114  RH  036%=      5-min Rain = 0
KLO1 120357Z 03002KT 02/M11 A303 RMK A01 T00201114  RH  036%=      5-min Rain = 0
KLO1 120358Z 02002KT 02/M12 A303 RMK A01 T00201115  RH  036%=      5-min Rain = 0
KLO1 120359Z 02002KT 02/M12 A303 RMK A01 T00201115  RH  036%=      5-min Rain = 0
KLO1 120400Z 01002KT 02/M12 A303 RMK A01 T00191116  RH  036%=      5-min Rain = 0
KLO1 120401Z 01001KT 02/M12 A303 RMK A01 T00161117  RH  037%=      5-min Rain = 0
KLO1 120402Z 01001KT 01/M12 A303 RMK A01 T00131117  RH  037%=      5-min Rain = 0
KLO1 120403Z 02000KT 01/M12 A303 RMK A01 T00101119  RH  038%=      5-min Rain = 0
KLO1 120404Z 00000KT 01/M12 A303 RMK A01 T00071120  RH  038%=      5-min Rain = 0
KLO1 120405Z 00000KT 01/M12 A303 RMK A01 T00051121  RH  039%=      5-min Rain = 0
KLO1 120406Z 00000KT 00/M12 A303 RMK A01 T00011122  RH  039%=      5-min Rain = 0
KLO1 120407Z 00000KT M00/M12 A303 RMK A01 T10021123  RH  040%=      5-min Rain = 0
KLO1 120408Z 29000KT M01/M12 A303 RMK A01 T10051123  RH  040%=      5-min Rain = 0
KLO1 120409Z 27000KT M01/M12 A303 RMK A01 T10071124  RH  041%=      5-min Rain = 0
KLO1 120410Z 27001KT M01/M12 A303 RMK A01 T10091124  RH  042%=      5-min Rain = 0
KLO1 120411Z 27001KT M01/M13 A303 RMK A01 T10121125  RH  042%=      5-min Rain = 0
KLO1 120412Z 27001KT M01/M12 A303 RMK A01 T10141124  RH  043%=      5-min Rain = 0
KLO1 120413Z 27001KT M01/M12 A303 RMK A01 T10141122  RH  044%=      5-min Rain = 0
KLO1 120414Z 28001KT M01/M12 A303 RMK A01 T10141121  RH  044%=      5-min Rain = 0
KLO1 120415Z 29001KT M01/M12 A303 RMK A01 T10141121  RH  044%=      5-min Rain = 0
KLO1 120416Z 30001KT M01/M12 A303 RMK A01 T10141121  RH  044%=      5-min Rain = 0
KLO1 120417Z 27000KT M01/M12 A3031 RMK A01 T10141120  RH  044%=      5-min Rain = 0
KLO1 120418Z 00000KT M01/M12 A3031 RMK A01 T10141120  RH  044%=      5-min Rain = 0
KLO1 120419Z 00000KT M01/M12 A3031 RMK A01 T10141120  RH  044%=      5-min Rain = 0
KLO1 120420Z 00000KT M02/M12 A303 RMK A01 T10151120  RH  045%=      5-min Rain = 0
KLO1 120421Z 00000KT M02/M12 A3031 RMK A01 T10151120  RH  045%=      5-min Rain = 0
KLO1 120422Z 00000KT M02/M12 A3031 RMK A01 T10151120  RH  045%=      5-min Rain = 0
KLO1 120423Z 00000KT M02/M12 A3031 RMK A01 T10151120  RH  045%=      5-min Rain = 0
KLO1 120424Z 00000KT M02/M12 A3031 RMK A01 T10151120  RH  045%=      5-min Rain = 0
KLO1 120425Z 00000KT M01/M12 A3031 RMK A01 T10141120  RH  044%=      5-min Rain = 0
KLO1 120426Z 00000KT M01/M12 A303 RMK A01 T10131120  RH  044%=      5-min Rain = 0
KLO1 120427Z 00000KT M01/M12 A303 RMK A01 T10131120  RH  044%=      5-min Rain = 0
KLO1 120428Z 00000KT M01/M12 A303 RMK A01 T10121119  RH  044%=      5-min Rain = 0
KLO1 120429Z 00000KT M01/M12 A303 RMK A01 T10121119  RH  044%=      5-min Rain = 0
KLO1 120430Z 00000KT M01/M12 A303 RMK A01 T10111119  RH  044%=      5-min Rain = 0
KLO1 120431Z 00000KT M01/M12 A303 RMK A01 T10111119  RH  044%=      5-min Rain = 0
KLO1 120432Z 00000KT M01/M12 A303 RMK A01 T10111119  RH  044%=      5-min Rain = 0
KLO1 120433Z 00000KT M01/M12 A303 RMK A01 T10111120  RH  043%=      5-min Rain = 0
KLO1 120434Z 00000KT M01/M12 A303 RMK A01 T10121120  RH  043%=      5-min Rain = 0
KLO1 120435Z 00000KT M01/M12 A303 RMK A01 T10131121  RH  044%=      5-min Rain = 0
KLO1 120436Z 00000KT M01/M12 A303 RMK A01 T10131121  RH  044%=      5-min Rain = 0
KLO1 120437Z 00000KT M01/M12 A303 RMK A01 T10131120  RH  044%=      5-min Rain = 0
KLO1 120438Z 02000KT M01/M12 A303 RMK A01 T10121118  RH  045%=      5-min Rain = 0
KLO1 120439Z 00000KT M01/M12 A303 RMK A01 T10111116  RH  045%=      5-min Rain = 0
KLO1 120440Z 00000KT M01/M12 A303 RMK A01 T10091115  RH  044%=      5-min Rain = 0
KLO1 120441Z 00000KT M01/M12 A303 RMK A01 T10081115  RH  044%=      5-min Rain = 0
KLO1 120442Z 00000KT M01/M12 A303 RMK A01 T10071115  RH  044%=      5-min Rain = 0
KLO1 120443Z 00000KT M01/M12 A303 RMK A01 T10061115  RH  044%=      5-min Rain = 0
KLO1 120444Z 00000KT M01/M12 A303 RMK A01 T10051115  RH  043%=      5-min Rain = 0
KLO1 120445Z 00000KT M01/M12 A303 RMK A01 T10051116  RH  043%=      5-min Rain = 0
KLO1 120446Z 00000KT M01/M12 A303 RMK A01 T10051116  RH  043%=      5-min Rain = 0
KLO1 120447Z 00000KT M01/M12 A303 RMK A01 T10081122  RH  042%=      5-min Rain = 0
KLO1 120448Z 00000KT M01/M13 A303 RMK A01 T10141127  RH  042%=      5-min Rain = 0
KLO1 120449Z 00000KT M02/M13 A3031 RMK A01 T10171127  RH  043%=      5-min Rain = 0
KLO1 120450Z 25000KT M02/M13 A3031 RMK A01 T10181127  RH  043%=      5-min Rain = 0
KLO1 120451Z 24002KT M02/M13 A3031 RMK A01 T10191125  RH  044%=      5-min Rain = 0
KLO1 120452Z 23004KT M02/M12 A3031 RMK A01 T10191122  RH  045%=      5-min Rain = 0
KLO1 120453Z 23004KT M02/M12 A3031 RMK A01 T10201120  RH  046%=      5-min Rain = 0
KLO1 120454Z 23004KT M02/M12 A3031 RMK A01 T10201118  RH  047%=      5-min Rain = 0
KLO1 120455Z 23003KT M02/M12 A3031 RMK A01 T10191116  RH  047%=      5-min Rain = 0
KLO1 120456Z 23003KT M02/M12 A3031 RMK A01 T10181115  RH  047%=      5-min Rain = 0
KLO1 120457Z 23003KT M02/M11 A3031 RMK A01 T10171114  RH  047%=      5-min Rain = 0
KLO1 120458Z 22003KT M02/M12 A3031 RMK A01 T10171115  RH  047%=      5-min Rain = 0
KLO1 120459Z 22002KT M02/M12 A3031 RMK A01 T10171115  RH  047%=      5-min Rain = 0
KLO1 120500Z 22002KT M02/M12 A3031 RMK A01 T10171116  RH  047%=      5-min Rain = 0
KLO1 120501Z 22001KT M02/M12 A3031 RMK A01 T10171115  RH  047%=      5-min Rain = 0
KLO1 120502Z 22000KT M02/M12 A3031 RMK A01 T10181116  RH  047%=      5-min Rain = 0
KLO1 120503Z 00000KT M02/M12 A3031 RMK A01 T10181116  RH  047%=      5-min Rain = 0
KLO1 120504Z 22000KT M02/M12 A3031 RMK A01 T10181117  RH  047%=      5-min Rain = 0
KLO1 120505Z 22000KT M02/M12 A3031 RMK A01 T10191118  RH  047%=      5-min Rain = 0
KLO1 120506Z 00000KT M02/M12 A3031 RMK A01 T10201119  RH  047%=      5-min Rain = 0
KLO1 120507Z 00000KT M02/M12 A3031 RMK A01 T10211119  RH  047%=      5-min Rain = 0
KLO1 120508Z 00000KT M02/M12 A3031 RMK A01 T10211119  RH  047%=      5-min Rain = 0
KLO1 120509Z 23000KT M02/M12 A3031 RMK A01 T10211119  RH  047%=      5-min Rain = 0
KLO1 120510Z 23000KT M02/M12 A3031 RMK A01 T10221119  RH  047%=      5-min Rain = 0
KLO1 120511Z 24000KT M02/M12 A3031 RMK A01 T10221118  RH  048%=      5-min Rain = 0
KLO1 120512Z 24001KT M02/M12 A3031 RMK A01 T10221117  RH  048%=      5-min Rain = 0
KLO1 120513Z 24002KT M02/M12 A3031 RMK A01 T10201115  RH  048%=      5-min Rain = 0
KLO1 120514Z 24002KT M02/M11 A3031 RMK A01 T10201114  RH  048%=      5-min Rain = 0
KLO1 120515Z 24002KT M02/M11 A3031 RMK A01 T10191114  RH  048%=      5-min Rain = 0
KLO1 120516Z 24002KT M02/M11 A3031 RMK A01 T10191114  RH  048%=      5-min Rain = 0
KLO1 120517Z 24003KT M02/M12 A3031 RMK A01 T10201115  RH  048%=      5-min Rain = 0
KLO1 120518Z 24003KT M02/M12 A3031 RMK A01 T10221116  RH  048%=      5-min Rain = 0
KLO1 120519Z 24002KT M02/M12 A3031 RMK A01 T10231115  RH  049%=      5-min Rain = 0
KLO1 120520Z 24002KT M02/M11 A3031 RMK A01 T10221114  RH  049%=      5-min Rain = 0
KLO1 120521Z 25002KT M02/M11 A3031 RMK A01 T10211113  RH  049%=      5-min Rain = 0
KLO1 120522Z 25001KT M02/M11 A3031 RMK A01 T10201113  RH  049%=      5-min Rain = 0
KLO1 120523Z 00000KT M02/M11 A3031 RMK A01 T10201113  RH  049%=      5-min Rain = 0
KLO1 120524Z 00000KT M02/M11 A3031 RMK A01 T10191114  RH  048%=      5-min Rain = 0
KLO1 120525Z 00000KT M02/M12 A3031 RMK A01 T10201115  RH  048%=      5-min Rain = 0
KLO1 120526Z 00000KT M02/M12 A3031 RMK A01 T10201116  RH  048%=      5-min Rain = 0
KLO1 120527Z 00000KT M02/M12 A3031 RMK A01 T10211119  RH  047%=      5-min Rain = 0
KLO1 120528Z 00000KT M02/M12 A3031 RMK A01 T10231120  RH  047%=      5-min Rain = 0
KLO1 120529Z 00000KT M02/M12 A3031 RMK A01 T10231119  RH  048%=      5-min Rain = 0
KLO1 120530Z 00000KT M02/M12 A3031 RMK A01 T10231120  RH  047%=      5-min Rain = 0
KLO1 120531Z 00000KT M02/M12 A3031 RMK A01 T10231121  RH  047%=      5-min Rain = 0
KLO1 120532Z 00000KT M02/M12 A3031 RMK A01 T10241122  RH  047%=      5-min Rain = 0
KLO1 120533Z 00000KT M02/M12 A3031 RMK A01 T10241123  RH  047%=      5-min Rain = 0
KLO1 120534Z 00000KT M03/M12 A3031 RMK A01 T10251124  RH  047%=      5-min Rain = 0
KLO1 120535Z 00000KT M03/M12 A3031 RMK A01 T10251123  RH  047%=      5-min Rain = 0
KLO1 120536Z 00000KT M03/M12 A3031 RMK A01 T10261123  RH  047%=      5-min Rain = 0
KLO1 120537Z 00000KT M03/M12 A3031 RMK A01 T10261123  RH  047%=      5-min Rain = 0
KLO1 120538Z 00000KT M03/M12 A3031 RMK A01 T10261123  RH  047%=      5-min Rain = 0
KLO1 120539Z 00000KT M03/M12 A3031 RMK A01 T10261123  RH  048%=      5-min Rain = 0
KLO1 120540Z 00000KT M03/M12 A3031 RMK A01 T10261123  RH  048%=      5-min Rain = 0
KLO1 120541Z 00000KT M03/M12 A3031 RMK A01 T10261121  RH  048%=      5-min Rain = 0
KLO1 120542Z 00000KT M03/M12 A3031 RMK A01 T10251119  RH  048%=      5-min Rain = 0
KLO1 120543Z 00000KT M02/M12 A3031 RMK A01 T10231118  RH  048%=      5-min Rain = 0
KLO1 120544Z 00000KT M02/M12 A3031 RMK A01 T10221118  RH  048%=      5-min Rain = 0
KLO1 120545Z 00000KT M02/M12 A3031 RMK A01 T10211119  RH  047%=      5-min Rain = 0
KLO1 120546Z 00000KT M02/M12 A3031 RMK A01 T10211120  RH  047%=      5-min Rain = 0
KLO1 120547Z 00000KT M02/M12 A3031 RMK A01 T10221120  RH  047%=      5-min Rain = 0
KLO1 120548Z 00000KT M02/M12 A3031 RMK A01 T10221120  RH  047%=      5-min Rain = 0
KLO1 120549Z 00000KT M02/M12 A3031 RMK A01 T10221121  RH  046%=      5-min Rain = 0
KLO1 120550Z 00000KT M02/M12 A3031 RMK A01 T10221122  RH  046%=      5-min Rain = 0
KLO1 120551Z 00000KT M02/M12 A3031 RMK A01 T10211122  RH  046%=      5-min Rain = 0
KLO1 120552Z 00000KT M02/M12 A3031 RMK A01 T10221123  RH  046%=      5-min Rain = 0
KLO1 120553Z 00000KT M02/M12 A3031 RMK A01 T10221123  RH  046%=      5-min Rain = 0
KLO1 120554Z 00000KT M02/M12 A3031 RMK A01 T10221124  RH  046%=      5-min Rain = 0
KLO1 120555Z 25000KT M02/M13 A3031 RMK A01 T10221125  RH  045%=      5-min Rain = 0
KLO1 120556Z 25001KT M02/M13 A303 RMK A01 T10231126  RH  045%=      5-min Rain = 0
KLO1 120557Z 08001KT M02/M13 A303 RMK A01 T10231126  RH  045%=      5-min Rain = 0
KLO1 120558Z 07002KT M02/M13 A303 RMK A01 T10231126  RH  045%=      5-min Rain = 0
KLO1 120559Z 07002KT M02/M13 A303 RMK A01 T10241128  RH  045%=      5-min Rain = 0

Page generated in 0.053 seconds.